Time,TemperatureF,DewpointF,PressureIn,WindDirection,WindDirectionDegrees,WindSpeedMPH,WindSpeedGustMPH,Humidity,HourlyPrecipIn,Conditions,Clouds,dailyrainin,SoftwareType,DateUTC
2013-05-19 00:00:00,68.4,65.6,29.91,ESE,113,1.6,1.6,91,0.02,,,0.00,WUHU216HW,2013-05-19 04:00:00,
2013-05-19 00:01:00,68.4,65.6,29.90,South,180,2.0,2.0,91,0.00,,,0.00,WUHU216HW,2013-05-19 04:01:00,
2013-05-19 00:03:00,68.4,65.6,29.90,SSW,203,2.2,2.2,91,0.00,,,0.00,WUHU216HW,2013-05-19 04:03:00,
2013-05-19 00:06:00,68.4,65.6,29.91,SE,135,1.8,2.2,91,0.00,,,0.00,WUHU216HW,2013-05-19 04:06:00,
2013-05-19 00:07:00,68.4,65.6,29.91,SE,128,1.3,2.2,91,0.00,,,0.00,WUHU216HW,2013-05-19 04:07:00,
2013-05-19 00:09:00,68.4,65.6,29.90,SSE,155,1.0,2.2,91,0.00,,,0.00,WUHU216HW,2013-05-19 04:09:00,
2013-05-19 00:12:00,68.2,65.4,29.90,SE,126,0.9,2.2,91,0.00,,,0.00,WUHU216HW,2013-05-19 04:12:00,
2013-05-19 00:13:00,68.2,65.4,29.90,ESE,113,0.9,1.8,91,0.00,,,0.00,WUHU216HW,2013-05-19 04:13:00,
2013-05-19 00:14:00,68.2,65.4,29.90,SE,135,1.3,1.8,91,0.00,,,0.00,WUHU216HW,2013-05-19 04:14:00,
2013-05-19 00:17:00,68.2,65.4,29.90,ESE,113,1.8,1.8,91,0.00,,,0.00,WUHU216HW,2013-05-19 04:17:00,
2013-05-19 00:18:00,68.2,65.4,29.90,SSE,158,2.0,2.0,91,0.00,,,0.00,WUHU216HW,2013-05-19 04:18:00,
2013-05-19 00:20:00,68.2,65.4,29.90,SE,135,2.0,2.0,91,0.00,,,0.00,WUHU216HW,2013-05-19 04:20:00,
2013-05-19 00:22:00,68.2,65.4,29.90,ENE,68,2.5,2.5,91,0.00,,,0.00,WUHU216HW,2013-05-19 04:22:00,
2013-05-19 00:23:00,68.2,65.4,29.90,ENE,59,2.0,2.5,91,0.00,,,0.00,WUHU216HW,2013-05-19 04:23:00,
2013-05-19 00:25:00,68.2,65.4,29.90,East,90,0.7,2.5,91,0.00,,,0.00,WUHU216HW,2013-05-19 04:25:00,
2013-05-19 00:27:00,68.2,65.4,29.90,East,90,1.1,2.5,91,0.00,,,0.00,WUHU216HW,2013-05-19 04:27:00,
2013-05-19 00:28:00,68.2,65.4,29.90,ESE,107,0.9,2.5,91,0.00,,,0.00,WUHU216HW,2013-05-19 04:28:00,
2013-05-19 00:30:00,68.0,65.3,29.90,ESE,123,0.8,2.5,91,0.00,,,0.00,WUHU216HW,2013-05-19 04:30:00,
2013-05-19 00:33:00,68.0,65.3,29.90,SE,135,1.1,1.1,91,0.00,,,0.00,WUHU216HW,2013-05-19 04:33:00,
2013-05-19 00:34:00,68.0,65.3,29.90,SE,135,1.1,1.1,91,0.00,,,0.00,WUHU216HW,2013-05-19 04:34:00,
2013-05-19 00:35:00,68.0,65.3,29.90,SE,135,0.7,1.1,91,0.00,,,0.00,WUHU216HW,2013-05-19 04:35:00,
2013-05-19 00:38:00,68.0,65.3,29.90,SSW,203,0.9,1.8,91,0.00,,,0.00,WUHU216HW,2013-05-19 04:38:00,
2013-05-19 00:39:00,68.0,65.3,29.89,ESE,113,1.1,1.8,91,0.00,,,0.00,WUHU216HW,2013-05-19 04:39:00,
2013-05-19 00:40:00,68.0,65.3,29.89,SE,135,1.3,1.8,91,0.00,,,0.00,WUHU216HW,2013-05-19 04:40:00,
2013-05-19 00:41:00,68.0,65.3,29.89,SE,135,1.1,1.8,91,0.00,,,0.00,WUHU216HW,2013-05-19 04:41:00,
2013-05-19 00:44:00,67.9,65.1,29.89,SE,135,0.9,1.8,91,0.00,,,0.00,WUHU216HW,2013-05-19 04:44:00,
2013-05-19 00:45:00,67.9,65.1,29.89,SE,135,0.9,1.8,91,0.00,,,0.00,WUHU216HW,2013-05-19 04:45:00,
2013-05-19 00:46:00,67.7,64.9,29.89,SE,135,0.0,1.3,91,0.00,,,0.00,WUHU216HW,2013-05-19 04:46:00,
2013-05-19 00:47:00,67.7,64.9,29.89,SE,135,0.0,1.3,91,0.00,,,0.00,WUHU216HW,2013-05-19 04:47:00,
2013-05-19 00:48:00,67.7,64.9,29.89,SW,225,0.4,1.3,91,0.00,,,0.00,WUHU216HW,2013-05-19 04:48:00,
2013-05-19 00:49:00,67.7,64.9,29.89,SW,225,0.3,1.3,91,0.00,,,0.00,WUHU216HW,2013-05-19 04:49:00,
2013-05-19 00:50:00,67.7,64.9,29.89,SW,225,0.4,0.9,91,0.00,,,0.00,WUHU216HW,2013-05-19 04:50:00,
2013-05-19 00:51:00,67.7,64.9,29.89,SW,225,0.4,0.9,91,0.00,,,0.00,WUHU216HW,2013-05-19 04:51:00,
2013-05-19 00:52:00,67.7,64.9,29.89,SW,225,0.4,0.9,91,0.00,,,0.00,WUHU216HW,2013-05-19 04:52:00,
2013-05-19 00:54:00,67.7,64.9,29.89,SW,225,0.2,0.4,91,0.00,,,0.00,WUHU216HW,2013-05-19 04:54:00,
2013-05-19 00:55:00,67.7,64.9,29.89,SSW,203,0.4,0.4,91,0.00,,,0.00,WUHU216HW,2013-05-19 04:55:00,
2013-05-19 00:56:00,67.7,64.9,29.89,SSW,203,0.4,0.4,91,0.00,,,0.00,WUHU216HW,2013-05-19 04:56:00,
2013-05-19 00:57:00,67.7,64.9,29.89,SSW,203,0.0,0.4,91,0.00,,,0.00,WUHU216HW,2013-05-19 04:57:00,
2013-05-19 00:59:00,67.7,64.9,29.89,SSW,203,0.0,0.4,91,0.00,,,0.00,WUHU216HW,2013-05-19 04:59:00,
2013-05-19 01:01:00,67.7,64.9,29.89,SSW,203,0.0,0.4,91,0.00,,,0.00,WUHU216HW,2013-05-19 05:01:00,
2013-05-19 01:02:00,67.7,64.9,29.89,SSW,203,0.0,0.4,91,0.00,,,0.00,WUHU216HW,2013-05-19 05:02:00,
2013-05-19 01:03:00,67.7,64.9,29.89,SSW,203,0.0,0.4,91,0.00,,,0.00,WUHU216HW,2013-05-19 05:03:00,
2013-05-19 01:05:00,67.9,65.1,29.89,SSW,203,0.0,0.4,91,0.00,,,0.00,WUHU216HW,2013-05-19 05:05:00,
2013-05-19 01:06:00,67.7,64.9,29.89,SSW,203,0.4,0.4,91,0.00,,,0.00,WUHU216HW,2013-05-19 05:06:00,
2013-05-19 01:07:00,67.7,64.9,29.89,East,90,1.6,1.6,91,0.00,,,0.00,WUHU216HW,2013-05-19 05:07:00,
2013-05-19 01:08:00,67.9,65.1,29.89,ESE,113,1.3,1.6,91,0.00,,,0.00,WUHU216HW,2013-05-19 05:08:00,
2013-05-19 01:11:00,67.9,65.1,29.89,ESE,104,1.8,2.2,91,0.00,,,0.00,WUHU216HW,2013-05-19 05:11:00,
2013-05-19 01:12:00,67.9,65.1,29.89,East,99,1.1,2.2,91,0.00,,,0.00,WUHU216HW,2013-05-19 05:12:00,
2013-05-19 01:13:00,67.9,65.1,29.89,SE,135,1.3,2.2,91,0.00,,,0.00,WUHU216HW,2013-05-19 05:13:00,
2013-05-19 01:16:00,67.9,65.1,29.90,SSE,158,0.4,2.2,91,0.00,,,0.00,WUHU216HW,2013-05-19 05:16:00,
2013-05-19 01:17:00,67.9,65.1,29.89,SE,135,0.9,2.2,91,0.00,,,0.00,WUHU216HW,2013-05-19 05:17:00,
2013-05-19 01:18:00,67.9,65.1,29.89,SE,135,0.6,2.2,91,0.00,,,0.00,WUHU216HW,2013-05-19 05:18:00,
2013-05-19 01:19:00,68.0,65.3,29.90,ESE,113,0.9,2.2,91,0.00,,,0.00,WUHU216HW,2013-05-19 05:19:00,
2013-05-19 01:22:00,68.0,65.3,29.90,SE,135,1.2,1.3,91,0.00,,,0.00,WUHU216HW,2013-05-19 05:22:00,
2013-05-19 01:23:00,68.0,65.3,29.90,SE,135,2.0,2.0,91,0.00,,,0.00,WUHU216HW,2013-05-19 05:23:00,
2013-05-19 01:25:00,68.0,65.3,29.90,South,171,2.1,2.9,91,0.00,,,0.00,WUHU216HW,2013-05-19 05:25:00,
2013-05-19 01:27:00,68.0,65.3,29.90,South,180,2.2,2.9,91,0.00,,,0.00,WUHU216HW,2013-05-19 05:27:00,
2013-05-19 01:28:00,68.0,65.3,29.90,SSW,203,1.8,2.9,91,0.00,,,0.00,WUHU216HW,2013-05-19 05:28:00,
2013-05-19 01:30:00,68.0,65.3,29.90,SW,225,0.7,2.9,91,0.00,,,0.00,WUHU216HW,2013-05-19 05:30:00,
2013-05-19 01:31:00,68.0,65.3,29.90,SW,225,1.6,2.9,91,0.00,,,0.00,WUHU216HW,2013-05-19 05:31:00,
2013-05-19 01:33:00,68.0,65.3,29.90,SSW,203,0.7,2.9,91,0.00,,,0.00,WUHU216HW,2013-05-19 05:33:00,
2013-05-19 01:34:00,68.0,65.3,29.90,SSW,203,0.4,2.2,91,0.00,,,0.00,WUHU216HW,2013-05-19 05:34:00,
2013-05-19 01:36:00,68.0,65.3,29.89,SE,135,2.5,2.5,91,0.00,,,0.00,WUHU216HW,2013-05-19 05:36:00,
2013-05-19 01:37:00,68.0,65.3,29.89,SE,135,2.5,2.5,91,0.00,,,0.00,WUHU216HW,2013-05-19 05:37:00,
2013-05-19 01:39:00,68.0,65.3,29.89,SE,135,1.1,2.5,91,0.00,,,0.00,WUHU216HW,2013-05-19 05:39:00,
2013-05-19 01:40:00,68.0,65.3,29.89,South,180,2.7,2.7,91,0.00,,,0.00,WUHU216HW,2013-05-19 05:40:00,
2013-05-19 01:43:00,68.0,65.3,29.89,SSE,158,1.3,2.7,91,0.00,,,0.00,WUHU216HW,2013-05-19 05:43:00,
2013-05-19 01:44:00,68.0,65.3,29.89,ESE,113,3.1,3.1,91,0.00,,,0.00,WUHU216HW,2013-05-19 05:44:00,
2013-05-19 01:45:00,68.0,65.3,29.89,ESE,113,3.1,3.1,91,0.00,,,0.00,WUHU216HW,2013-05-19 05:45:00,
2013-05-19 01:46:00,68.0,65.3,29.89,ESE,113,3.1,3.1,91,0.00,,,0.00,WUHU216HW,2013-05-19 05:46:00,
2013-05-19 01:48:00,68.0,65.3,29.89,ESE,113,3.1,3.1,91,0.00,,,0.00,WUHU216HW,2013-05-19 05:48:00,
2013-05-19 01:50:00,68.0,65.3,29.89,ESE,113,3.1,3.1,91,0.00,,,0.00,WUHU216HW,2013-05-19 05:50:00,
2013-05-19 01:51:00,68.0,65.3,29.89,ESE,113,3.1,3.1,91,0.00,,,0.00,WUHU216HW,2013-05-19 05:51:00,
2013-05-19 01:59:00,68.0,65.3,29.89,West,270,0.4,0.4,91,0.00,,,0.00,WUHU216HW,2013-05-19 05:59:00,
2013-05-19 02:00:00,68.0,65.3,29.89,West,270,0.4,0.4,91,0.00,,,0.00,WUHU216HW,2013-05-19 06:00:00,
2013-05-19 02:01:00,68.0,65.3,29.89,West,270,0.4,0.4,91,0.00,,,0.00,WUHU216HW,2013-05-19 06:01:00,
2013-05-19 02:05:00,68.0,65.3,29.89,SSE,158,1.1,1.1,91,0.00,,,0.00,WUHU216HW,2013-05-19 06:05:00,
2013-05-19 02:06:00,68.0,65.3,29.89,SE,135,1.6,1.6,91,0.00,,,0.00,WUHU216HW,2013-05-19 06:06:00,
2013-05-19 02:07:00,68.0,65.3,29.89,SE,125,1.5,1.6,91,0.00,,,0.00,WUHU216HW,2013-05-19 06:07:00,
2013-05-19 02:09:00,68.0,65.3,29.89,SE,135,1.6,1.6,91,0.00,,,0.00,WUHU216HW,2013-05-19 06:09:00,
2013-05-19 02:10:00,68.0,65.6,29.89,ESE,123,1.7,1.8,92,0.00,,,0.00,WUHU216HW,2013-05-19 06:10:00,
2013-05-19 02:11:00,68.0,65.3,29.89,SE,127,1.3,1.8,91,0.00,,,0.00,WUHU216HW,2013-05-19 06:11:00,
2013-05-19 02:12:00,68.0,65.6,29.89,SE,135,1.1,1.8,92,0.00,,,0.00,WUHU216HW,2013-05-19 06:12:00,
2013-05-19 02:14:00,68.0,65.6,29.88,SE,125,1.5,1.8,92,0.00,,,0.00,WUHU216HW,2013-05-19 06:14:00,
2013-05-19 02:16:00,68.0,65.6,29.89,South,180,1.1,1.8,92,0.00,,,0.00,WUHU216HW,2013-05-19 06:16:00,
2013-05-19 02:17:00,68.0,65.6,29.89,South,180,1.1,1.8,92,0.00,,,0.00,WUHU216HW,2013-05-19 06:17:00,
2013-05-19 02:18:00,68.2,65.4,29.89,SSW,200,1.0,1.8,91,0.00,,,0.00,WUHU216HW,2013-05-19 06:18:00,
2013-05-19 02:20:00,68.0,65.3,29.89,SSW,203,1.8,1.8,91,0.00,,,0.00,WUHU216HW,2013-05-19 06:20:00,
2013-05-19 02:22:00,68.0,65.3,29.88,SSW,203,2.9,2.9,91,0.00,,,0.00,WUHU216HW,2013-05-19 06:22:00,
2013-05-19 02:23:00,68.0,65.6,29.88,SSE,158,3.1,3.1,92,0.00,,,0.00,WUHU216HW,2013-05-19 06:23:00,
2013-05-19 02:24:00,68.0,65.6,29.88,SSE,158,3.1,3.1,92,0.00,,,0.00,WUHU216HW,2013-05-19 06:24:00,
2013-05-19 02:26:00,68.2,65.8,29.88,South,180,1.8,3.1,92,0.00,,,0.00,WUHU216HW,2013-05-19 06:26:00,
2013-05-19 02:28:00,68.2,65.8,29.88,South,169,1.7,3.1,92,0.00,,,0.00,WUHU216HW,2013-05-19 06:28:00,
2013-05-19 02:29:00,68.0,65.6,29.88,SE,135,2.2,3.1,92,0.00,,,0.00,WUHU216HW,2013-05-19 06:29:00,
2013-05-19 02:31:00,68.2,65.8,29.88,SE,135,1.8,3.1,92,0.00,,,0.00,WUHU216HW,2013-05-19 06:31:00,
2013-05-19 02:33:00,68.2,65.8,29.88,SSE,158,1.8,2.2,92,0.00,,,0.00,WUHU216HW,2013-05-19 06:33:00,
2013-05-19 02:34:00,68.2,65.8,29.88,SSE,158,1.8,2.2,92,0.00,,,0.00,WUHU216HW,2013-05-19 06:34:00,
2013-05-19 02:36:00,68.2,65.8,29.88,SSE,158,1.1,2.2,92,0.00,,,0.00,WUHU216HW,2013-05-19 06:36:00,
2013-05-19 02:38:00,68.2,65.8,29.88,SE,135,1.1,2.2,92,0.00,,,0.00,WUHU216HW,2013-05-19 06:38:00,
2013-05-19 02:39:00,68.2,65.8,29.88,South,180,1.5,2.0,92,0.00,,,0.00,WUHU216HW,2013-05-19 06:39:00,
2013-05-19 02:41:00,68.2,65.8,29.88,SSE,158,1.8,2.0,92,0.00,,,0.00,WUHU216HW,2013-05-19 06:41:00,
2013-05-19 02:42:00,68.2,65.8,29.88,SSE,158,2.9,2.9,92,0.00,,,0.00,WUHU216HW,2013-05-19 06:42:00,
2013-05-19 02:43:00,68.2,65.8,29.88,SSE,158,2.9,2.9,92,0.00,,,0.00,WUHU216HW,2013-05-19 06:43:00,
2013-05-19 02:44:00,68.2,65.8,29.88,SE,135,0.7,2.9,92,0.00,,,0.00,WUHU216HW,2013-05-19 06:44:00,
2013-05-19 02:47:00,68.2,65.8,29.88,South,180,1.8,2.9,92,0.00,,,0.00,WUHU216HW,2013-05-19 06:47:00,
2013-05-19 02:49:00,68.2,65.8,29.88,SSW,203,0.9,2.9,92,0.00,,,0.00,WUHU216HW,2013-05-19 06:49:00,
2013-05-19 02:50:00,68.2,65.8,29.88,SW,225,1.3,2.9,92,0.00,,,0.00,WUHU216HW,2013-05-19 06:50:00,
2013-05-19 02:53:00,68.2,65.8,29.88,SW,225,1.0,1.8,92,0.00,,,0.00,WUHU216HW,2013-05-19 06:53:00,
2013-05-19 02:54:00,68.2,65.8,29.88,SE,135,1.1,1.8,92,0.00,,,0.00,WUHU216HW,2013-05-19 06:54:00,
2013-05-19 02:55:00,68.2,65.8,29.88,South,180,1.3,1.8,92,0.00,,,0.00,WUHU216HW,2013-05-19 06:55:00,
2013-05-19 02:58:00,68.2,65.8,29.88,SW,225,0.4,1.6,92,0.00,,,0.00,WUHU216HW,2013-05-19 06:58:00,
2013-05-19 02:59:00,68.2,65.8,29.88,SSW,203,0.7,1.6,92,0.00,,,0.00,WUHU216HW,2013-05-19 06:59:00,
2013-05-19 03:00:00,68.2,65.8,29.88,SSE,158,1.1,1.6,92,0.00,,,0.00,WUHU216HW,2013-05-19 07:00:00,
2013-05-19 03:02:00,68.2,65.8,29.88,SE,135,1.1,1.3,92,0.00,,,0.00,WUHU216HW,2013-05-19 07:02:00,
2013-05-19 03:05:00,68.2,65.8,29.88,SE,135,0.6,1.3,92,0.00,,,0.00,WUHU216HW,2013-05-19 07:05:00,
2013-05-19 03:06:00,68.4,66.0,29.88,SE,135,0.4,1.1,92,0.00,,,0.00,WUHU216HW,2013-05-19 07:06:00,
2013-05-19 03:07:00,68.4,66.0,29.88,SE,135,0.4,1.1,92,0.00,,,0.00,WUHU216HW,2013-05-19 07:07:00,
2013-05-19 03:10:00,68.4,66.0,29.88,SE,131,1.5,1.8,92,0.00,,,0.00,WUHU216HW,2013-05-19 07:10:00,
2013-05-19 03:12:00,68.4,66.0,29.88,ESE,118,0.8,1.8,92,0.00,,,0.00,WUHU216HW,2013-05-19 07:12:00,
2013-05-19 03:13:00,68.4,66.0,29.88,SSE,158,1.3,1.8,92,0.00,,,0.00,WUHU216HW,2013-05-19 07:13:00,
2013-05-19 03:14:00,68.4,66.0,29.88,SSE,158,1.3,1.8,92,0.00,,,0.00,WUHU216HW,2013-05-19 07:14:00,
2013-05-19 03:15:00,68.4,66.0,29.88,SSE,166,1.5,1.8,92,0.00,,,0.00,WUHU216HW,2013-05-19 07:15:00,
2013-05-19 03:17:00,68.4,66.0,29.88,SE,135,2.0,2.0,92,0.00,,,0.00,WUHU216HW,2013-05-19 07:17:00,
2013-05-19 03:18:00,68.4,66.0,29.88,SE,135,1.2,2.0,92,0.00,,,0.00,WUHU216HW,2013-05-19 07:18:00,
2013-05-19 03:20:00,68.4,66.0,29.88,SE,135,1.8,2.0,92,0.00,,,0.00,WUHU216HW,2013-05-19 07:20:00,
2013-05-19 03:21:00,68.4,66.0,29.88,SE,135,1.8,2.0,92,0.00,,,0.00,WUHU216HW,2013-05-19 07:21:00,
2013-05-19 03:24:00,68.4,66.0,29.88,SSE,158,2.3,2.5,92,0.00,,,0.00,WUHU216HW,2013-05-19 07:24:00,
2013-05-19 03:25:00,68.4,66.0,29.88,SSE,147,1.9,2.5,92,0.00,,,0.00,WUHU216HW,2013-05-19 07:25:00,
2013-05-19 03:26:00,68.2,65.8,29.88,SE,135,2.7,2.7,92,0.00,,,0.00,WUHU216HW,2013-05-19 07:26:00,
2013-05-19 03:29:00,68.2,65.8,29.88,SSE,152,0.8,2.9,92,0.00,,,0.00,WUHU216HW,2013-05-19 07:29:00,
2013-05-19 03:30:00,68.2,65.8,29.88,SSE,152,0.8,2.9,92,0.00,,,0.00,WUHU216HW,2013-05-19 07:30:00,
2013-05-19 03:31:00,68.2,65.8,29.88,SSE,158,0.4,2.9,92,0.00,,,0.00,WUHU216HW,2013-05-19 07:31:00,
2013-05-19 03:32:00,68.2,65.8,29.88,SSW,203,1.1,2.9,92,0.00,,,0.00,WUHU216HW,2013-05-19 07:32:00,
2013-05-19 03:35:00,68.2,65.8,29.88,SSW,203,0.0,2.9,92,0.00,,,0.00,WUHU216HW,2013-05-19 07:35:00,
2013-05-19 03:37:00,68.2,65.8,29.88,SE,132,0.7,1.1,92,0.00,,,0.00,WUHU216HW,2013-05-19 07:37:00,
2013-05-19 03:38:00,68.2,65.8,29.88,SE,132,0.7,1.1,92,0.00,,,0.00,WUHU216HW,2013-05-19 07:38:00,
2013-05-19 03:40:00,68.2,65.8,29.88,ESE,121,0.6,1.1,92,0.00,,,0.00,WUHU216HW,2013-05-19 07:40:00,
2013-05-19 03:41:00,68.2,65.8,29.88,ESE,121,0.6,1.1,92,0.00,,,0.00,WUHU216HW,2013-05-19 07:41:00,
2013-05-19 03:42:00,68.2,65.8,29.88,SW,225,0.4,1.1,92,0.00,,,0.00,WUHU216HW,2013-05-19 07:42:00,
2013-05-19 03:43:00,68.2,65.8,29.88,SW,225,0.2,1.1,92,0.00,,,0.00,WUHU216HW,2013-05-19 07:43:00,
2013-05-19 03:45:00,68.2,65.8,29.88,SW,225,0.0,1.1,92,0.00,,,0.00,WUHU216HW,2013-05-19 07:45:00,
2013-05-19 03:47:00,68.2,65.8,29.88,SW,225,1.1,1.1,92,0.00,,,0.00,WUHU216HW,2013-05-19 07:47:00,
2013-05-19 03:48:00,68.2,65.8,29.88,SW,225,0.8,1.1,92,0.00,,,0.00,WUHU216HW,2013-05-19 07:48:00,
2013-05-19 03:49:00,68.2,65.8,29.88,SW,225,0.4,1.1,92,0.00,,,0.00,WUHU216HW,2013-05-19 07:49:00,
2013-05-19 03:50:00,68.2,65.8,29.87,ESE,113,1.1,1.1,92,0.00,,,0.00,WUHU216HW,2013-05-19 07:50:00,
2013-05-19 03:51:00,68.2,65.8,29.87,ESE,118,0.8,1.1,92,0.00,,,0.00,WUHU216HW,2013-05-19 07:51:00,
2013-05-19 03:52:00,68.4,66.0,29.87,South,180,0.4,1.1,92,0.00,,,0.00,WUHU216HW,2013-05-19 07:52:00,
2013-05-19 03:53:00,68.4,66.0,29.87,South,180,0.4,1.1,92,0.00,,,0.00,WUHU216HW,2013-05-19 07:53:00,
2013-05-19 03:54:00,68.2,65.8,29.88,SSW,203,0.2,1.1,92,0.00,,,0.00,WUHU216HW,2013-05-19 07:54:00,
2013-05-19 03:56:00,68.2,65.8,29.87,SSW,203,0.0,1.1,92,0.00,,,0.00,WUHU216HW,2013-05-19 07:56:00,
2013-05-19 03:57:00,68.2,65.8,29.87,SSW,203,0.0,1.1,92,0.00,,,0.00,WUHU216HW,2013-05-19 07:57:00,
2013-05-19 03:58:00,68.2,65.8,29.87,SSW,203,0.0,1.1,92,0.00,,,0.00,WUHU216HW,2013-05-19 07:58:00,
2013-05-19 04:00:00,68.2,65.8,29.87,SSW,203,0.0,1.1,92,0.00,,,0.00,WUHU216HW,2013-05-19 08:00:00,
2013-05-19 04:02:00,68.2,65.8,29.87,SSW,203,0.0,0.4,92,0.00,,,0.00,WUHU216HW,2013-05-19 08:02:00,
2013-05-19 04:03:00,68.2,65.8,29.87,SSW,203,0.0,0.2,92,0.00,,,0.00,WUHU216HW,2013-05-19 08:03:00,
2013-05-19 04:05:00,68.2,65.8,29.87,SSW,203,0.0,0.0,92,0.00,,,0.00,WUHU216HW,2013-05-19 08:05:00,
2013-05-19 04:06:00,68.2,65.8,29.87,SSW,203,0.0,0.0,92,0.00,,,0.00,WUHU216HW,2013-05-19 08:06:00,
2013-05-19 04:08:00,68.2,65.8,29.87,SW,225,0.0,0.0,92,0.00,,,0.00,WUHU216HW,2013-05-19 08:08:00,
2013-05-19 04:11:00,68.2,65.8,29.87,WSW,248,0.2,0.2,92,0.00,,,0.00,WUHU216HW,2013-05-19 08:11:00,
2013-05-19 04:13:00,68.2,65.8,29.87,WSW,248,0.2,0.2,92,0.00,,,0.00,WUHU216HW,2013-05-19 08:13:00,
2013-05-19 04:14:00,68.2,65.8,29.87,WSW,248,0.0,0.2,92,0.00,,,0.00,WUHU216HW,2013-05-19 08:14:00,
2013-05-19 04:15:00,68.2,65.8,29.87,WSW,248,0.0,0.2,92,0.00,,,0.00,WUHU216HW,2013-05-19 08:15:00,
2013-05-19 04:16:00,68.2,65.8,29.87,WSW,248,0.0,0.2,92,0.00,,,0.00,WUHU216HW,2013-05-19 08:16:00,
2013-05-19 04:18:00,68.2,65.8,29.87,South,185,0.8,1.3,92,0.00,,,0.00,WUHU216HW,2013-05-19 08:18:00,
2013-05-19 04:19:00,68.2,65.8,29.87,SSW,203,0.3,1.3,92,0.00,,,0.00,WUHU216HW,2013-05-19 08:19:00,
2013-05-19 04:20:00,68.2,65.8,29.87,SSW,203,0.2,1.3,92,0.00,,,0.00,WUHU216HW,2013-05-19 08:20:00,
2013-05-19 04:21:00,68.2,65.8,29.87,SSW,203,1.3,1.3,92,0.00,,,0.00,WUHU216HW,2013-05-19 08:21:00,
2013-05-19 04:25:00,68.2,65.8,29.87,ESE,113,1.1,1.3,92,0.00,,,0.00,WUHU216HW,2013-05-19 08:25:00,
2013-05-19 04:26:00,68.2,65.8,29.87,ESE,113,1.1,1.3,92,0.00,,,0.00,WUHU216HW,2013-05-19 08:26:00,
2013-05-19 04:27:00,68.2,65.8,29.87,ESE,113,0.9,1.3,92,0.00,,,0.00,WUHU216HW,2013-05-19 08:27:00,
2013-05-19 04:31:00,68.4,66.0,29.87,SSE,158,0.4,1.1,92,0.00,,,0.00,WUHU216HW,2013-05-19 08:31:00,
2013-05-19 04:32:00,68.4,66.0,29.87,SE,135,1.3,1.3,92,0.00,,,0.00,WUHU216HW,2013-05-19 08:32:00,
2013-05-19 04:33:00,68.4,66.0,29.87,SE,126,1.1,1.3,92,0.00,,,0.00,WUHU216HW,2013-05-19 08:33:00,
2013-05-19 04:36:00,68.4,66.0,29.87,ESE,113,1.6,1.6,92,0.00,,,0.00,WUHU216HW,2013-05-19 08:36:00,
2013-05-19 04:37:00,68.4,66.0,29.87,ESE,121,1.3,1.6,92,0.00,,,0.00,WUHU216HW,2013-05-19 08:37:00,
2013-05-19 04:38:00,68.4,66.0,29.87,ESE,121,1.3,1.6,92,0.00,,,0.00,WUHU216HW,2013-05-19 08:38:00,
2013-05-19 04:39:00,68.4,66.0,29.87,SE,135,0.6,1.6,92,0.00,,,0.00,WUHU216HW,2013-05-19 08:39:00,
2013-05-19 04:42:00,68.4,66.0,29.87,SE,135,0.4,1.6,92,0.00,,,0.00,WUHU216HW,2013-05-19 08:42:00,
2013-05-19 04:43:00,68.4,66.0,29.87,SE,135,0.6,1.6,92,0.00,,,0.00,WUHU216HW,2013-05-19 08:43:00,
2013-05-19 04:44:00,68.4,66.0,29.87,SE,135,0.9,1.6,92,0.00,,,0.00,WUHU216HW,2013-05-19 08:44:00,
2013-05-19 04:45:00,68.4,66.0,29.87,SE,135,0.6,1.6,92,0.00,,,0.00,WUHU216HW,2013-05-19 08:45:00,
2013-05-19 04:47:00,68.2,65.8,29.88,SE,135,0.4,0.9,92,0.00,,,0.00,WUHU216HW,2013-05-19 08:47:00,
2013-05-19 04:49:00,68.2,65.8,29.87,SE,135,1.3,1.3,92,0.00,,,0.00,WUHU216HW,2013-05-19 08:49:00,
2013-05-19 04:50:00,68.2,65.8,29.87,SE,135,1.6,1.6,92,0.00,,,0.00,WUHU216HW,2013-05-19 08:50:00,
2013-05-19 04:53:00,68.2,65.8,29.87,ESE,113,1.6,1.6,92,0.00,,,0.00,WUHU216HW,2013-05-19 08:53:00,
2013-05-19 04:54:00,68.2,65.8,29.87,ESE,113,1.6,1.6,92,0.00,,,0.00,WUHU216HW,2013-05-19 08:54:00,
2013-05-19 04:55:00,68.2,66.1,29.87,East,90,1.1,1.6,93,0.00,,,0.00,WUHU216HW,2013-05-19 08:55:00,
2013-05-19 04:56:00,68.2,66.1,29.87,East,90,1.1,1.6,93,0.00,,,0.00,WUHU216HW,2013-05-19 08:56:00,
2013-05-19 04:59:00,68.2,65.8,29.87,East,90,0.0,1.6,92,0.00,,,0.00,WUHU216HW,2013-05-19 08:59:00,
2013-05-19 05:00:00,68.4,66.0,29.87,East,90,0.0,1.6,92,0.00,,,0.00,WUHU216HW,2013-05-19 09:00:00,
2013-05-19 05:02:00,68.4,66.0,29.87,East,90,0.0,1.6,92,0.00,,,0.00,WUHU216HW,2013-05-19 09:02:00,
2013-05-19 05:05:00,68.4,66.0,29.87,SE,135,0.7,1.3,92,0.00,,,0.00,WUHU216HW,2013-05-19 09:05:00,
2013-05-19 05:06:00,68.4,66.0,29.87,SE,135,0.6,1.3,92,0.00,,,0.00,WUHU216HW,2013-05-19 09:06:00,
2013-05-19 05:08:00,68.4,66.0,29.87,SE,135,0.7,1.3,92,0.00,,,0.00,WUHU216HW,2013-05-19 09:08:00,
2013-05-19 05:09:00,68.4,66.0,29.87,SE,135,0.9,1.3,92,0.00,,,0.00,WUHU216HW,2013-05-19 09:09:00,
2013-05-19 05:10:00,68.4,66.0,29.87,SE,135,1.1,1.3,92,0.00,,,0.00,WUHU216HW,2013-05-19 09:10:00,
2013-05-19 05:11:00,68.4,66.0,29.87,SE,135,1.1,1.3,92,0.00,,,0.00,WUHU216HW,2013-05-19 09:11:00,
2013-05-19 05:13:00,68.4,66.2,29.87,SE,135,0.8,1.1,93,0.00,,,0.00,WUHU216HW,2013-05-19 09:13:00,
2013-05-19 05:16:00,68.4,66.2,29.87,SE,135,0.7,1.1,93,0.00,,,0.00,WUHU216HW,2013-05-19 09:16:00,
2013-05-19 05:17:00,68.4,66.2,29.87,ESE,113,1.1,1.1,93,0.00,,,0.00,WUHU216HW,2013-05-19 09:17:00,
2013-05-19 05:18:00,68.6,66.4,29.87,SE,124,2.8,2.9,93,0.00,,,0.00,WUHU216HW,2013-05-19 09:18:00,
2013-05-19 05:19:00,68.6,66.4,29.87,ESE,121,1.7,2.9,93,0.00,,,0.00,WUHU216HW,2013-05-19 09:19:00,
2013-05-19 05:21:00,68.6,66.4,29.87,SSE,147,1.2,2.9,93,0.00,,,0.00,WUHU216HW,2013-05-19 09:21:00,
2013-05-19 05:22:00,68.6,66.4,29.87,SE,135,1.1,2.9,93,0.00,,,0.00,WUHU216HW,2013-05-19 09:22:00,
2013-05-19 05:24:00,68.6,66.4,29.87,SE,127,0.6,2.9,93,0.00,,,0.00,WUHU216HW,2013-05-19 09:24:00,
2013-05-19 05:25:00,68.6,66.4,29.87,SSE,158,0.4,2.9,93,0.00,,,0.00,WUHU216HW,2013-05-19 09:25:00,
2013-05-19 05:26:00,68.6,66.4,29.87,SE,135,0.9,2.9,93,0.00,,,0.00,WUHU216HW,2013-05-19 09:26:00,
2013-05-19 05:28:00,68.6,66.4,29.87,ESE,113,1.1,1.3,93,0.00,,,0.00,WUHU216HW,2013-05-19 09:28:00,
2013-05-19 05:29:00,68.6,66.4,29.87,ESE,113,2.9,2.9,93,0.00,,,0.00,WUHU216HW,2013-05-19 09:29:00,
2013-05-19 05:30:00,68.6,66.4,29.87,ESE,113,2.9,2.9,93,0.00,,,0.00,WUHU216HW,2013-05-19 09:30:00,
2013-05-19 05:32:00,68.6,66.4,29.87,ESE,123,2.3,2.9,93,0.00,,,0.00,WUHU216HW,2013-05-19 09:32:00,
2013-05-19 05:33:00,68.6,66.4,29.87,East,90,2.0,2.9,93,0.00,,,0.00,WUHU216HW,2013-05-19 09:33:00,
2013-05-19 05:35:00,68.8,66.6,29.87,NE,45,0.2,2.9,93,0.00,,,0.00,WUHU216HW,2013-05-19 09:35:00,
2013-05-19 05:36:00,68.8,66.6,29.87,ESE,113,0.9,2.9,93,0.00,,,0.00,WUHU216HW,2013-05-19 09:36:00,
2013-05-19 05:38:00,68.8,66.6,29.87,SE,135,0.4,2.9,93,0.00,,,0.00,WUHU216HW,2013-05-19 09:38:00,
2013-05-19 05:39:00,68.8,66.6,29.87,SE,135,0.4,2.9,93,0.00,,,0.00,WUHU216HW,2013-05-19 09:39:00,
2013-05-19 05:41:00,68.8,66.6,29.87,SE,142,1.1,2.0,93,0.00,,,0.00,WUHU216HW,2013-05-19 09:41:00,
2013-05-19 05:42:00,68.8,66.6,29.87,SE,142,1.1,2.0,93,0.00,,,0.00,WUHU216HW,2013-05-19 09:42:00,
2013-05-19 05:44:00,68.8,66.6,29.87,SE,135,1.8,1.8,93,0.00,,,0.00,WUHU216HW,2013-05-19 09:44:00,
2013-05-19 05:47:00,68.8,66.6,29.87,SE,135,1.3,1.8,93,0.00,,,0.00,WUHU216HW,2013-05-19 09:47:00,
2013-05-19 05:49:00,68.8,66.6,29.88,SE,135,1.2,1.8,93,0.00,,,0.00,WUHU216HW,2013-05-19 09:49:00,
2013-05-19 05:50:00,68.8,66.6,29.88,ESE,113,1.8,1.8,93,0.00,,,0.00,WUHU216HW,2013-05-19 09:50:00,
2013-05-19 05:52:00,68.8,66.6,29.88,SE,135,1.8,1.8,93,0.00,,,0.00,WUHU216HW,2013-05-19 09:52:00,
2013-05-19 05:55:00,68.8,66.6,29.88,ESE,120,1.9,2.5,93,0.00,,,0.00,WUHU216HW,2013-05-19 09:55:00,
2013-05-19 05:56:00,68.8,66.6,29.88,SE,129,1.4,2.5,93,0.00,,,0.00,WUHU216HW,2013-05-19 09:56:00,
2013-05-19 05:58:00,68.8,66.6,29.88,ESE,113,1.3,2.5,93,0.00,,,0.00,WUHU216HW,2013-05-19 09:58:00,
2013-05-19 06:00:00,68.8,66.6,29.89,SE,135,2.2,2.5,93,0.00,,,0.00,WUHU216HW,2013-05-19 10:00:00,
2013-05-19 06:01:00,68.8,66.6,29.89,SE,135,1.6,2.5,93,0.00,,,0.00,WUHU216HW,2013-05-19 10:01:00,
2013-05-19 06:02:00,68.8,66.6,29.89,SE,135,0.7,2.5,93,0.00,,,0.00,WUHU216HW,2013-05-19 10:02:00,
2013-05-19 06:03:00,68.8,66.6,29.89,ESE,113,1.8,2.5,93,0.00,,,0.00,WUHU216HW,2013-05-19 10:03:00,
2013-05-19 06:04:00,68.9,66.8,29.89,SE,135,3.1,3.1,93,0.00,,,0.00,WUHU216HW,2013-05-19 10:04:00,
2013-05-19 06:06:00,68.8,66.6,29.89,SSE,158,1.6,3.1,93,0.00,,,0.00,WUHU216HW,2013-05-19 10:06:00,
2013-05-19 06:08:00,68.9,66.8,29.89,South,180,0.4,3.1,93,0.00,,,0.00,WUHU216HW,2013-05-19 10:08:00,
2013-05-19 06:09:00,68.9,66.8,29.89,South,180,0.0,3.1,93,0.00,,,0.00,WUHU216HW,2013-05-19 10:09:00,
2013-05-19 06:10:00,68.9,66.8,29.89,South,180,0.0,3.1,93,0.00,,,0.00,WUHU216HW,2013-05-19 10:10:00,
2013-05-19 06:11:00,68.9,66.8,29.89,SE,141,0.6,3.1,93,0.00,,,0.00,WUHU216HW,2013-05-19 10:11:00,
2013-05-19 06:14:00,68.9,66.8,29.89,ESE,113,0.4,1.6,93,0.00,,,0.00,WUHU216HW,2013-05-19 10:14:00,
2013-05-19 06:16:00,68.9,66.8,29.89,SE,129,0.8,1.1,93,0.00,,,0.00,WUHU216HW,2013-05-19 10:16:00,
2013-05-19 06:17:00,68.9,66.8,29.89,ESE,113,0.9,1.1,93,0.00,,,0.00,WUHU216HW,2013-05-19 10:17:00,
2013-05-19 06:19:00,68.9,66.8,29.89,ESE,113,1.1,1.1,93,0.00,,,0.00,WUHU216HW,2013-05-19 10:19:00,
2013-05-19 06:21:00,68.9,66.8,29.89,ESE,113,1.2,1.3,93,0.00,,,0.00,WUHU216HW,2013-05-19 10:21:00,
2013-05-19 06:22:00,68.9,66.8,29.89,ESE,113,1.1,1.3,93,0.00,,,0.00,WUHU216HW,2013-05-19 10:22:00,
2013-05-19 06:23:00,68.9,66.8,29.89,ESE,113,1.6,1.6,93,0.00,,,0.00,WUHU216HW,2013-05-19 10:23:00,
2013-05-19 06:25:00,68.9,66.8,29.89,ESE,113,1.8,1.8,93,0.00,,,0.00,WUHU216HW,2013-05-19 10:25:00,
2013-05-19 06:26:00,68.9,66.8,29.89,ESE,113,1.8,1.8,93,0.00,,,0.00,WUHU216HW,2013-05-19 10:26:00,
2013-05-19 06:27:00,68.9,66.8,29.89,ESE,103,2.2,2.5,93,0.00,,,0.00,WUHU216HW,2013-05-19 10:27:00,
2013-05-19 06:28:00,68.9,66.8,29.89,ESE,103,2.2,2.5,93,0.00,,,0.00,WUHU216HW,2013-05-19 10:28:00,
2013-05-19 06:29:00,68.9,66.8,29.90,ESE,113,2.9,2.9,93,0.00,,,0.00,WUHU216HW,2013-05-19 10:29:00,
2013-05-19 06:31:00,68.9,66.8,29.90,SE,135,2.0,2.9,93,0.00,,,0.00,WUHU216HW,2013-05-19 10:31:00,
2013-05-19 06:32:00,68.9,66.8,29.90,SE,124,1.9,2.9,93,0.00,,,0.00,WUHU216HW,2013-05-19 10:32:00,
2013-05-19 06:33:00,68.9,66.8,29.90,SE,124,1.9,2.9,93,0.00,,,0.00,WUHU216HW,2013-05-19 10:33:00,
2013-05-19 06:35:00,68.8,66.6,29.90,ESE,109,0.6,2.9,93,0.00,,,0.00,WUHU216HW,2013-05-19 10:35:00,
2013-05-19 06:37:00,68.8,66.6,29.90,SE,135,1.9,2.9,93,0.00,,,0.00,WUHU216HW,2013-05-19 10:37:00,
2013-05-19 06:38:00,68.8,66.6,29.90,SE,135,2.0,2.9,93,0.00,,,0.00,WUHU216HW,2013-05-19 10:38:00,
2013-05-19 06:40:00,68.8,66.6,29.90,ESE,105,1.9,2.5,93,0.00,,,0.00,WUHU216HW,2013-05-19 10:40:00,
2013-05-19 06:43:00,68.8,66.6,29.90,ESE,113,1.3,2.5,93,0.00,,,0.00,WUHU216HW,2013-05-19 10:43:00,
2013-05-19 06:44:00,68.8,66.6,29.90,East,90,1.6,2.5,93,0.00,,,0.00,WUHU216HW,2013-05-19 10:44:00,
2013-05-19 06:45:00,68.6,66.4,29.90,East,90,1.3,2.5,93,0.00,,,0.00,WUHU216HW,2013-05-19 10:45:00,
2013-05-19 06:48:00,68.6,66.4,29.91,East,90,1.6,2.5,93,0.00,,,0.00,WUHU216HW,2013-05-19 10:48:00,
2013-05-19 06:49:00,68.6,66.4,29.91,East,90,1.6,2.5,93,0.00,,,0.00,WUHU216HW,2013-05-19 10:49:00,
2013-05-19 06:51:00,68.6,66.4,29.91,East,80,0.6,1.6,93,0.00,,,0.00,WUHU216HW,2013-05-19 10:51:00,
2013-05-19 06:53:00,68.6,66.4,29.91,SE,135,2.5,2.5,93,0.00,,,0.00,WUHU216HW,2013-05-19 10:53:00,
2013-05-19 06:54:00,68.6,66.4,29.90,SE,126,2.0,2.5,93,0.00,,,0.00,WUHU216HW,2013-05-19 10:54:00,
2013-05-19 06:57:00,68.6,66.4,29.90,SE,135,1.9,2.5,93,0.00,,,0.00,WUHU216HW,2013-05-19 10:57:00,
2013-05-19 07:00:00,68.6,66.4,29.90,SE,138,1.3,2.5,93,0.00,,,0.00,WUHU216HW,2013-05-19 11:00:00,
2013-05-19 07:01:00,68.6,66.4,29.90,SSE,158,2.2,2.5,93,0.00,,,0.00,WUHU216HW,2013-05-19 11:01:00,
2013-05-19 07:02:00,68.6,66.4,29.90,SSE,148,1.9,2.5,93,0.00,,,0.00,WUHU216HW,2013-05-19 11:02:00,
2013-05-19 07:05:00,68.6,66.4,29.90,ESE,119,1.8,2.5,93,0.00,,,0.00,WUHU216HW,2013-05-19 11:05:00,
2013-05-19 07:06:00,68.6,66.4,29.90,ESE,121,1.3,2.5,93,0.00,,,0.00,WUHU216HW,2013-05-19 11:06:00,
2013-05-19 07:08:00,68.8,66.6,29.90,SE,135,0.4,2.5,93,0.00,,,0.00,WUHU216HW,2013-05-19 11:08:00,
2013-05-19 07:10:00,68.6,66.4,29.90,SSE,158,1.3,2.5,93,0.00,,,0.00,WUHU216HW,2013-05-19 11:10:00,
2013-05-19 07:12:00,68.8,66.6,29.91,SSE,158,0.9,2.5,93,0.00,,,0.00,WUHU216HW,2013-05-19 11:12:00,
2013-05-19 07:13:00,68.8,66.6,29.91,SSE,158,0.0,2.5,93,0.00,,,0.00,WUHU216HW,2013-05-19 11:13:00,
2013-05-19 07:14:00,68.8,66.6,29.91,SSE,158,0.0,1.3,93,0.00,,,0.00,WUHU216HW,2013-05-19 11:14:00,
2013-05-19 07:16:00,68.8,66.6,29.91,SE,135,0.0,1.3,93,0.00,,,0.00,WUHU216HW,2013-05-19 11:16:00,
2013-05-19 07:17:00,68.9,66.8,29.91,SE,135,0.4,1.3,93,0.00,,,0.00,WUHU216HW,2013-05-19 11:17:00,
2013-05-19 07:18:00,69.1,67.0,29.91,SE,135,0.4,1.3,93,0.00,,,0.00,WUHU216HW,2013-05-19 11:18:00,
2013-05-19 07:19:00,69.1,67.0,29.91,ESE,113,1.1,1.3,93,0.00,,,0.00,WUHU216HW,2013-05-19 11:19:00,
2013-05-19 07:20:00,69.1,67.0,29.91,ESE,113,0.8,1.1,93,0.00,,,0.00,WUHU216HW,2013-05-19 11:20:00,
2013-05-19 07:21:00,69.1,67.0,29.91,ESE,113,0.4,1.1,93,0.00,,,0.00,WUHU216HW,2013-05-19 11:21:00,
2013-05-19 07:23:00,69.3,67.1,29.91,ESE,113,0.0,1.1,93,0.00,,,0.00,WUHU216HW,2013-05-19 11:23:00,
2013-05-19 07:25:00,69.5,67.3,29.91,ESE,113,0.0,1.1,93,0.00,,,0.00,WUHU216HW,2013-05-19 11:25:00,
2013-05-19 07:26:00,69.7,67.5,29.91,ESE,113,0.0,1.1,93,0.00,,,0.00,WUHU216HW,2013-05-19 11:26:00,
2013-05-19 07:29:00,69.8,67.7,29.91,ESE,113,1.2,1.6,93,0.00,,,0.00,WUHU216HW,2013-05-19 11:29:00,
2013-05-19 07:30:00,70.0,67.9,29.91,ESE,113,1.1,1.6,93,0.00,,,0.00,WUHU216HW,2013-05-19 11:30:00,
2013-05-19 07:31:00,70.2,68.0,29.91,East,90,1.8,1.8,93,0.00,,,0.00,WUHU216HW,2013-05-19 11:31:00,
2013-05-19 07:35:00,70.4,68.2,29.91,ESE,113,1.1,1.8,93,0.00,,,0.00,WUHU216HW,2013-05-19 11:35:00,
2013-05-19 07:36:00,70.6,68.4,29.91,ESE,113,1.1,1.8,93,0.00,,,0.00,WUHU216HW,2013-05-19 11:36:00,
2013-05-19 07:37:00,70.6,68.4,29.91,SE,135,1.8,1.8,93,0.00,,,0.00,WUHU216HW,2013-05-19 11:37:00,
2013-05-19 07:40:00,71.1,68.7,29.91,SE,135,3.1,3.1,92,0.00,,,0.00,WUHU216HW,2013-05-19 11:40:00,
2013-05-19 07:42:00,71.1,68.7,29.91,ESE,113,2.9,3.1,92,0.00,,,0.00,WUHU216HW,2013-05-19 11:42:00,
2013-05-19 07:43:00,71.1,68.7,29.91,ESE,113,2.9,3.1,92,0.00,,,0.00,WUHU216HW,2013-05-19 11:43:00,
2013-05-19 07:46:00,71.3,68.9,29.91,ESE,113,2.2,3.1,92,0.00,,,0.00,WUHU216HW,2013-05-19 11:46:00,
2013-05-19 07:48:00,71.5,69.0,29.91,SE,135,4.0,4.0,92,0.00,,,0.00,WUHU216HW,2013-05-19 11:48:00,
2013-05-19 07:49:00,71.3,68.9,29.91,ESE,122,3.2,4.0,92,0.00,,,0.00,WUHU216HW,2013-05-19 11:49:00,
2013-05-19 07:51:00,71.1,68.3,29.91,East,99,3.7,4.5,91,0.00,,,0.00,WUHU216HW,2013-05-19 11:51:00,
2013-05-19 07:53:00,70.9,68.1,29.91,ESE,113,2.7,4.5,91,0.00,,,0.00,WUHU216HW,2013-05-19 11:53:00,
2013-05-19 07:56:00,70.9,68.1,29.91,ESE,113,2.3,4.5,91,0.00,,,0.00,WUHU216HW,2013-05-19 11:56:00,
2013-05-19 07:58:00,70.7,68.0,29.91,ESE,113,1.8,4.5,91,0.00,,,0.00,WUHU216HW,2013-05-19 11:58:00,
2013-05-19 07:59:00,70.7,68.0,29.91,ESE,108,1.1,4.5,91,0.00,,,0.00,WUHU216HW,2013-05-19 11:59:00,
2013-05-19 08:02:00,70.9,68.1,29.91,SE,135,2.5,3.4,91,0.00,,,0.00,WUHU216HW,2013-05-19 12:02:00,
2013-05-19 08:05:00,71.1,68.3,29.91,SE,135,2.0,3.6,91,0.00,,,0.00,WUHU216HW,2013-05-19 12:05:00,
2013-05-19 08:06:00,71.1,68.3,29.91,SE,125,1.8,3.6,91,0.00,,,0.00,WUHU216HW,2013-05-19 12:06:00,
2013-05-19 08:07:00,71.1,68.3,29.91,ESE,113,1.8,3.6,91,0.00,,,0.00,WUHU216HW,2013-05-19 12:07:00,
2013-05-19 08:09:00,71.3,68.5,29.91,ESE,113,2.0,3.6,91,0.00,,,0.00,WUHU216HW,2013-05-19 12:09:00,
2013-05-19 08:11:00,71.3,68.5,29.91,ESE,113,3.1,3.6,91,0.00,,,0.00,WUHU216HW,2013-05-19 12:11:00,
2013-05-19 08:12:00,71.3,68.5,29.91,ESE,113,3.1,3.6,91,0.00,,,0.00,WUHU216HW,2013-05-19 12:12:00,
2013-05-19 08:13:00,71.3,68.5,29.92,SE,135,3.4,3.4,91,0.00,,,0.00,WUHU216HW,2013-05-19 12:13:00,
2013-05-19 08:17:00,71.5,68.7,29.92,SSE,150,1.7,3.8,91,0.00,,,0.00,WUHU216HW,2013-05-19 12:17:00,
2013-05-19 08:18:00,71.3,68.5,29.92,SSW,203,1.8,3.8,91,0.00,,,0.00,WUHU216HW,2013-05-19 12:18:00,
2013-05-19 08:19:00,71.5,68.7,29.92,ENE,68,2.5,3.8,91,0.00,,,0.00,WUHU216HW,2013-05-19 12:19:00,
2013-05-19 08:23:00,71.6,68.9,29.92,SE,135,2.7,3.8,91,0.00,,,0.00,WUHU216HW,2013-05-19 12:23:00,
2013-05-19 08:24:00,71.6,68.9,29.92,SE,144,2.3,3.4,91,0.00,,,0.00,WUHU216HW,2013-05-19 12:24:00,
2013-05-19 08:25:00,71.6,68.9,29.92,South,180,3.4,3.4,91,0.00,,,0.00,WUHU216HW,2013-05-19 12:25:00,
2013-05-19 08:28:00,71.8,68.8,29.91,SE,135,4.9,4.9,90,0.00,,,0.00,WUHU216HW,2013-05-19 12:28:00,
2013-05-19 08:29:00,71.8,68.8,29.91,SE,128,3.6,4.9,90,0.00,,,0.00,WUHU216HW,2013-05-19 12:29:00,
2013-05-19 08:30:00,71.8,68.8,29.90,ESE,113,8.1,8.1,90,0.00,,,0.00,WUHU216HW,2013-05-19 12:30:00,
2013-05-19 08:31:00,71.6,68.6,29.90,ESE,113,7.5,8.1,90,0.00,,,0.00,WUHU216HW,2013-05-19 12:31:00,
2013-05-19 08:34:00,71.5,68.4,29.89,ESE,118,4.1,8.1,90,0.00,,,0.00,WUHU216HW,2013-05-19 12:34:00,
2013-05-19 08:35:00,71.3,68.2,29.89,SSE,158,4.0,8.1,90,0.00,,,0.00,WUHU216HW,2013-05-19 12:35:00,
2013-05-19 08:36:00,71.3,68.2,29.90,SSE,150,2.5,8.1,90,0.00,,,0.00,WUHU216HW,2013-05-19 12:36:00,
2013-05-19 08:37:00,71.3,68.2,29.90,SE,135,2.5,8.1,90,0.00,,,0.00,WUHU216HW,2013-05-19 12:37:00,
2013-05-19 08:39:00,71.1,68.0,29.91,ESE,113,3.4,8.1,90,0.00,,,0.00,WUHU216HW,2013-05-19 12:39:00,
2013-05-19 08:40:00,71.1,68.0,29.91,ESE,113,3.4,8.1,90,0.00,,,0.00,WUHU216HW,2013-05-19 12:40:00,
2013-05-19 08:41:00,71.1,68.0,29.92,East,90,1.8,4.9,90,0.00,,,0.00,WUHU216HW,2013-05-19 12:41:00,
2013-05-19 08:42:00,71.1,68.0,29.92,East,90,1.8,4.7,90,0.00,,,0.00,WUHU216HW,2013-05-19 12:42:00,
2013-05-19 08:43:00,71.1,68.0,29.92,ESE,120,2.0,4.0,90,0.00,,,0.00,WUHU216HW,2013-05-19 12:43:00,
2013-05-19 08:47:00,70.9,67.9,29.92,South,185,3.3,4.0,90,0.00,,,0.00,WUHU216HW,2013-05-19 12:47:00,
2013-05-19 08:48:00,70.9,67.9,29.92,South,185,3.3,4.0,90,0.00,,,0.00,WUHU216HW,2013-05-19 12:48:00,
2013-05-19 08:49:00,70.9,67.9,29.92,SE,135,5.1,5.1,90,0.00,,,0.00,WUHU216HW,2013-05-19 12:49:00,
2013-05-19 08:52:00,70.9,67.9,29.92,ESE,118,2.3,6.5,90,0.00,,,0.00,WUHU216HW,2013-05-19 12:52:00,
2013-05-19 08:53:00,70.7,67.7,29.92,ESE,113,2.9,6.5,90,0.00,,,0.00,WUHU216HW,2013-05-19 12:53:00,
2013-05-19 08:54:00,70.6,67.5,29.92,East,90,3.4,6.5,90,0.00,,,0.00,WUHU216HW,2013-05-19 12:54:00,
2013-05-19 08:57:00,70.4,67.3,29.92,ESE,113,4.0,6.5,90,0.00,,,0.00,WUHU216HW,2013-05-19 12:57:00,
2013-05-19 08:58:00,70.4,67.3,29.92,ESE,113,2.2,6.5,90,0.00,,,0.00,WUHU216HW,2013-05-19 12:58:00,
2013-05-19 08:59:00,70.2,67.1,29.92,SE,135,1.8,6.5,90,0.00,,,0.00,WUHU216HW,2013-05-19 12:59:00,
2013-05-19 09:00:00,70.2,67.4,29.92,SE,135,3.4,5.4,91,0.00,,,0.00,WUHU216HW,2013-05-19 13:00:00,
2013-05-19 09:03:00,70.0,67.2,29.91,SE,135,5.3,6.5,91,0.01,,,0.01,WUHU216HW,2013-05-19 13:03:00,
2013-05-19 09:04:00,70.0,67.2,29.91,SE,135,3.3,6.5,91,0.01,,,0.01,WUHU216HW,2013-05-19 13:04:00,
2013-05-19 09:05:00,70.0,67.2,29.91,SE,135,2.5,6.5,91,0.01,,,0.01,WUHU216HW,2013-05-19 13:05:00,
2013-05-19 09:09:00,69.7,66.9,29.90,ESE,113,8.1,8.1,91,0.01,,,0.01,WUHU216HW,2013-05-19 13:09:00,
2013-05-19 09:10:00,69.5,66.7,29.90,ESE,113,7.2,8.1,91,0.01,,,0.01,WUHU216HW,2013-05-19 13:10:00,
2013-05-19 09:11:00,69.5,66.7,29.90,East,99,4.6,8.1,91,0.01,,,0.01,WUHU216HW,2013-05-19 13:11:00,
2013-05-19 09:14:00,69.3,66.5,29.93,SSW,203,1.9,8.1,91,0.01,,,0.01,WUHU216HW,2013-05-19 13:14:00,
2013-05-19 09:15:00,69.3,66.5,29.93,ESE,113,3.4,8.1,91,0.02,,,0.02,WUHU216HW,2013-05-19 13:15:00,
2013-05-19 09:16:00,69.1,66.3,29.94,SE,128,2.6,8.1,91,0.02,,,0.02,WUHU216HW,2013-05-19 13:16:00,
2013-05-19 09:17:00,69.3,66.5,29.94,SE,135,4.5,8.1,91,0.02,,,0.02,WUHU216HW,2013-05-19 13:17:00,
2013-05-19 09:19:00,69.1,66.3,29.94,ESE,113,2.7,6.3,91,0.02,,,0.02,WUHU216HW,2013-05-19 13:19:00,
2013-05-19 09:20:00,69.1,66.3,29.94,SE,135,6.9,6.9,91,0.02,,,0.02,WUHU216HW,2013-05-19 13:20:00,
2013-05-19 09:21:00,69.1,66.3,29.94,SE,135,5.8,6.9,91,0.02,,,0.02,WUHU216HW,2013-05-19 13:21:00,
2013-05-19 09:22:00,69.1,66.3,29.95,SSE,158,6.9,6.9,91,0.02,,,0.02,WUHU216HW,2013-05-19 13:22:00,
2013-05-19 09:24:00,68.9,66.2,29.95,SSE,158,6.0,6.9,91,0.03,,,0.03,WUHU216HW,2013-05-19 13:24:00,
2013-05-19 09:25:00,68.9,66.2,29.95,SSE,158,6.0,6.9,91,0.03,,,0.03,WUHU216HW,2013-05-19 13:25:00,
2013-05-19 09:27:00,68.9,66.2,29.95,South,172,3.5,6.9,91,0.03,,,0.03,WUHU216HW,2013-05-19 13:27:00,
2013-05-19 09:28:00,68.9,66.2,29.95,South,172,3.5,6.9,91,0.03,,,0.03,WUHU216HW,2013-05-19 13:28:00,
2013-05-19 09:29:00,68.8,66.0,29.95,SE,125,2.3,6.9,91,0.03,,,0.03,WUHU216HW,2013-05-19 13:29:00,
2013-05-19 09:32:00,68.8,66.0,29.94,SSW,203,1.9,6.0,91,0.04,,,0.04,WUHU216HW,2013-05-19 13:32:00,
2013-05-19 09:33:00,68.6,65.8,29.94,SSW,203,1.8,6.0,91,0.05,,,0.05,WUHU216HW,2013-05-19 13:33:00,
2013-05-19 09:34:00,68.6,65.8,29.94,SSW,203,1.8,6.0,91,0.05,,,0.05,WUHU216HW,2013-05-19 13:34:00,
2013-05-19 09:35:00,68.6,65.8,29.94,SSE,158,2.2,4.5,91,0.06,,,0.06,WUHU216HW,2013-05-19 13:35:00,
2013-05-19 09:39:00,68.4,65.6,29.94,SE,125,3.7,4.0,91,0.10,,,0.10,WUHU216HW,2013-05-19 13:39:00,
2013-05-19 09:40:00,68.4,65.6,29.93,ESE,113,3.2,4.0,91,0.10,,,0.10,WUHU216HW,2013-05-19 13:40:00,
2013-05-19 09:42:00,68.4,65.6,29.93,ESE,113,2.9,4.0,91,0.12,,,0.12,WUHU216HW,2013-05-19 13:42:00,
2013-05-19 09:44:00,68.2,65.4,29.92,South,180,5.1,5.1,91,0.13,,,0.13,WUHU216HW,2013-05-19 13:44:00,
2013-05-19 09:46:00,68.2,65.4,29.92,SSE,158,4.9,5.1,91,0.13,,,0.13,WUHU216HW,2013-05-19 13:46:00,
2013-05-19 09:47:00,68.0,65.3,29.91,ESE,108,5.4,6.3,91,0.14,,,0.14,WUHU216HW,2013-05-19 13:47:00,
2013-05-19 09:51:00,67.9,65.1,29.91,SE,135,4.3,6.3,91,0.15,,,0.15,WUHU216HW,2013-05-19 13:51:00,
2013-05-19 09:52:00,67.9,65.1,29.91,SE,135,4.3,6.3,91,0.15,,,0.15,WUHU216HW,2013-05-19 13:52:00,
2013-05-19 09:53:00,67.7,64.9,29.92,ESE,123,3.9,6.3,91,0.15,,,0.15,WUHU216HW,2013-05-19 13:53:00,
2013-05-19 09:56:00,67.7,64.9,29.93,ENE,68,3.8,4.5,91,0.16,,,0.16,WUHU216HW,2013-05-19 13:56:00,
2013-05-19 09:57:00,67.7,64.9,29.93,ENE,68,4.9,4.9,91,0.16,,,0.16,WUHU216HW,2013-05-19 13:57:00,
2013-05-19 09:58:00,67.7,64.9,29.93,East,88,4.4,4.9,91,0.16,,,0.16,WUHU216HW,2013-05-19 13:58:00,
2013-05-19 09:59:00,67.7,65.3,29.93,ESE,113,3.3,4.9,92,0.16,,,0.16,WUHU216HW,2013-05-19 13:59:00,
2013-05-19 10:02:00,67.5,64.7,29.93,SSE,158,1.3,4.9,91,0.15,,,0.16,WUHU216HW,2013-05-19 14:02:00,
2013-05-19 10:04:00,67.5,64.7,29.93,SSE,159,3.0,4.9,91,0.15,,,0.16,WUHU216HW,2013-05-19 14:04:00,
2013-05-19 10:05:00,67.5,64.7,29.94,ESE,113,3.4,4.9,91,0.15,,,0.16,WUHU216HW,2013-05-19 14:05:00,
2013-05-19 10:07:00,67.5,64.7,29.94,SSE,148,2.2,4.0,91,0.15,,,0.16,WUHU216HW,2013-05-19 14:07:00,
2013-05-19 10:08:00,67.5,64.7,29.94,SW,225,1.8,3.8,91,0.15,,,0.16,WUHU216HW,2013-05-19 14:08:00,
2013-05-19 10:10:00,67.5,64.7,29.94,SSW,203,2.7,3.8,91,0.15,,,0.16,WUHU216HW,2013-05-19 14:10:00,
2013-05-19 10:11:00,67.3,64.5,29.94,South,184,2.5,3.8,91,0.15,,,0.16,WUHU216HW,2013-05-19 14:11:00,
2013-05-19 10:13:00,67.3,64.5,29.94,SE,135,2.7,3.4,91,0.14,,,0.16,WUHU216HW,2013-05-19 14:13:00,
2013-05-19 10:14:00,67.3,64.5,29.94,SE,135,2.7,3.4,91,0.14,,,0.16,WUHU216HW,2013-05-19 14:14:00,
2013-05-19 10:16:00,67.3,64.5,29.94,SE,135,3.6,3.6,91,0.14,,,0.16,WUHU216HW,2013-05-19 14:16:00,
2013-05-19 10:17:00,67.3,64.5,29.94,SE,142,2.6,3.6,91,0.14,,,0.16,WUHU216HW,2013-05-19 14:17:00,
2013-05-19 10:18:00,67.3,64.5,29.94,SE,135,2.5,3.6,91,0.14,,,0.16,WUHU216HW,2013-05-19 14:18:00,
2013-05-19 10:19:00,67.3,64.5,29.94,SE,135,2.5,3.6,91,0.14,,,0.16,WUHU216HW,2013-05-19 14:19:00,
2013-05-19 10:22:00,67.3,64.5,29.93,SE,135,4.0,4.0,91,0.13,,,0.16,WUHU216HW,2013-05-19 14:22:00,
2013-05-19 10:24:00,67.1,64.4,29.93,SSE,158,4.0,4.0,91,0.14,,,0.17,WUHU216HW,2013-05-19 14:24:00,
2013-05-19 10:25:00,67.1,64.4,29.93,SSE,150,3.1,4.0,91,0.14,,,0.17,WUHU216HW,2013-05-19 14:25:00,
2013-05-19 10:27:00,67.1,64.4,29.94,SE,135,2.2,4.0,91,0.14,,,0.17,WUHU216HW,2013-05-19 14:27:00,
2013-05-19 10:29:00,67.1,64.4,29.94,SSW,203,5.4,5.4,91,0.13,,,0.17,WUHU216HW,2013-05-19 14:29:00,
2013-05-19 10:31:00,67.1,64.4,29.94,SSW,192,3.6,5.4,91,0.13,,,0.17,WUHU216HW,2013-05-19 14:31:00,
2013-05-19 10:33:00,67.1,64.4,29.94,SSE,168,1.9,5.4,91,0.11,,,0.17,WUHU216HW,2013-05-19 14:33:00,
2013-05-19 10:35:00,67.0,64.2,29.94,SSE,158,5.1,5.4,91,0.09,,,0.17,WUHU216HW,2013-05-19 14:35:00,
2013-05-19 10:36:00,67.0,64.2,29.93,SE,135,6.0,6.0,91,0.08,,,0.17,WUHU216HW,2013-05-19 14:36:00,
2013-05-19 10:37:00,67.0,64.2,29.93,SE,127,4.6,6.0,91,0.07,,,0.17,WUHU216HW,2013-05-19 14:37:00,
2013-05-19 10:38:00,67.0,64.2,29.92,East,90,5.4,6.0,91,0.07,,,0.17,WUHU216HW,2013-05-19 14:38:00,
2013-05-19 10:42:00,66.8,64.0,29.92,SSE,147,6.9,7.6,91,0.04,,,0.17,WUHU216HW,2013-05-19 14:42:00,
2013-05-19 10:44:00,67.0,64.2,29.92,SE,135,11.4,11.4,91,0.04,,,0.17,WUHU216HW,2013-05-19 14:44:00,
2013-05-19 10:45:00,66.8,64.0,29.92,SE,135,8.3,11.4,91,0.04,,,0.17,WUHU216HW,2013-05-19 14:45:00,
2013-05-19 10:47:00,66.8,64.0,29.92,ESE,113,7.4,11.4,91,0.02,,,0.17,WUHU216HW,2013-05-19 14:47:00,
2013-05-19 10:50:00,66.8,64.0,29.92,SW,225,4.5,11.4,91,0.02,,,0.17,WUHU216HW,2013-05-19 14:50:00,
2013-05-19 10:51:00,66.8,64.0,29.92,SSW,195,3.4,11.4,91,0.02,,,0.17,WUHU216HW,2013-05-19 14:51:00,
2013-05-19 10:52:00,66.8,64.0,29.91,South,180,5.4,11.4,91,0.02,,,0.17,WUHU216HW,2013-05-19 14:52:00,
2013-05-19 10:53:00,66.8,64.0,29.91,SE,135,5.8,7.4,91,0.01,,,0.17,WUHU216HW,2013-05-19 14:53:00,
2013-05-19 10:54:00,66.8,64.0,29.91,SE,143,3.4,7.4,91,0.01,,,0.17,WUHU216HW,2013-05-19 14:54:00,
2013-05-19 10:55:00,66.6,63.8,29.91,SSW,203,5.6,7.4,91,0.01,,,0.17,WUHU216HW,2013-05-19 14:55:00,
2013-05-19 10:58:00,66.8,64.0,29.91,SSW,196,3.0,5.8,91,0.01,,,0.17,WUHU216HW,2013-05-19 14:58:00,
2013-05-19 10:59:00,66.8,64.0,29.91,South,182,1.8,5.8,91,0.01,,,0.17,WUHU216HW,2013-05-19 14:59:00,
2013-05-19 11:01:00,66.8,64.0,29.91,SE,138,1.8,5.8,91,0.01,,,0.17,WUHU216HW,2013-05-19 15:01:00,
2013-05-19 11:03:00,66.8,64.0,29.91,SE,135,1.8,5.8,91,0.01,,,0.17,WUHU216HW,2013-05-19 15:03:00,
2013-05-19 11:04:00,66.8,64.4,29.92,SE,141,0.8,5.6,92,0.01,,,0.17,WUHU216HW,2013-05-19 15:04:00,
2013-05-19 11:05:00,66.8,64.4,29.92,SE,135,2.7,5.6,92,0.01,,,0.17,WUHU216HW,2013-05-19 15:05:00,
2013-05-19 11:08:00,66.8,64.0,29.93,SSE,149,1.8,2.7,91,0.01,,,0.17,WUHU216HW,2013-05-19 15:08:00,
2013-05-19 11:09:00,66.8,64.0,29.93,SE,135,1.8,2.7,91,0.01,,,0.17,WUHU216HW,2013-05-19 15:09:00,
2013-05-19 11:10:00,67.0,64.2,29.93,SSE,158,2.5,2.7,91,0.01,,,0.17,WUHU216HW,2013-05-19 15:10:00,
2013-05-19 11:12:00,67.0,64.2,29.93,SE,135,2.0,2.7,91,0.01,,,0.17,WUHU216HW,2013-05-19 15:12:00,
2013-05-19 11:13:00,66.8,64.0,29.93,ESE,113,4.0,4.0,91,0.01,,,0.17,WUHU216HW,2013-05-19 15:13:00,
2013-05-19 11:15:00,67.0,64.2,29.93,SE,128,4.0,5.4,91,0.01,,,0.17,WUHU216HW,2013-05-19 15:15:00,
2013-05-19 11:16:00,67.0,64.2,29.93,SE,135,5.1,5.4,91,0.01,,,0.17,WUHU216HW,2013-05-19 15:16:00,
2013-05-19 11:17:00,66.8,64.0,29.93,SSE,158,5.4,5.4,91,0.01,,,0.17,WUHU216HW,2013-05-19 15:17:00,
2013-05-19 11:18:00,67.0,64.2,29.93,SSE,150,4.2,5.4,91,0.01,,,0.17,WUHU216HW,2013-05-19 15:18:00,
2013-05-19 11:21:00,67.0,64.2,29.93,SE,135,3.1,5.4,91,0.01,,,0.17,WUHU216HW,2013-05-19 15:21:00,
2013-05-19 11:23:00,67.0,64.2,29.93,SSW,203,2.9,5.4,91,0.00,,,0.17,WUHU216HW,2013-05-19 15:23:00,
2013-05-19 11:26:00,66.8,64.0,29.93,SE,135,2.7,5.4,91,0.00,,,0.17,WUHU216HW,2013-05-19 15:26:00,
2013-05-19 11:27:00,66.8,64.0,29.93,SE,135,5.1,5.1,91,0.00,,,0.17,WUHU216HW,2013-05-19 15:27:00,
2013-05-19 11:28:00,66.8,64.0,29.93,SE,126,4.3,5.1,91,0.00,,,0.17,WUHU216HW,2013-05-19 15:28:00,
2013-05-19 11:31:00,66.8,64.0,29.92,East,90,3.4,5.1,91,0.00,,,0.17,WUHU216HW,2013-05-19 15:31:00,
2013-05-19 11:32:00,66.8,64.0,29.92,SSE,158,3.4,5.1,91,0.00,,,0.17,WUHU216HW,2013-05-19 15:32:00,
2013-05-19 11:33:00,66.8,64.0,29.92,SSE,168,3.3,5.1,91,0.00,,,0.17,WUHU216HW,2013-05-19 15:33:00,
2013-05-19 11:34:00,66.8,64.0,29.93,SSE,162,2.7,5.1,91,0.00,,,0.17,WUHU216HW,2013-05-19 15:34:00,
2013-05-19 11:37:00,66.8,64.0,29.93,SSE,158,2.8,3.6,91,0.00,,,0.17,WUHU216HW,2013-05-19 15:37:00,
2013-05-19 11:38:00,66.8,64.0,29.93,SSE,158,3.4,3.4,91,0.00,,,0.17,WUHU216HW,2013-05-19 15:38:00,
2013-05-19 11:39:00,66.8,64.0,29.93,SSE,167,3.0,3.4,91,0.00,,,0.17,WUHU216HW,2013-05-19 15:39:00,
2013-05-19 11:42:00,67.0,64.2,29.93,SSE,158,1.8,3.4,91,0.00,,,0.17,WUHU216HW,2013-05-19 15:42:00,
2013-05-19 11:43:00,67.0,64.5,29.93,SSE,158,3.4,3.4,92,0.00,,,0.17,WUHU216HW,2013-05-19 15:43:00,
2013-05-19 11:44:00,66.8,64.0,29.93,SSE,150,2.6,3.4,91,0.00,,,0.17,WUHU216HW,2013-05-19 15:44:00,
2013-05-19 11:45:00,66.8,64.0,29.93,SE,135,1.5,3.4,91,0.00,,,0.17,WUHU216HW,2013-05-19 15:45:00,
2013-05-19 11:49:00,66.8,64.0,29.93,SE,145,3.5,4.0,91,0.05,,,0.22,WUHU216HW,2013-05-19 15:49:00,
2013-05-19 11:50:00,66.8,64.0,29.93,SE,145,3.5,4.0,91,0.05,,,0.22,WUHU216HW,2013-05-19 15:50:00,
2013-05-19 11:54:00,66.6,63.8,29.93,SSE,161,2.2,4.0,91,0.13,,,0.30,WUHU216HW,2013-05-19 15:54:00,
2013-05-19 11:55:00,66.6,63.8,29.93,SE,135,2.2,4.0,91,0.14,,,0.31,WUHU216HW,2013-05-19 15:55:00,
2013-05-19 11:58:00,66.4,63.6,29.93,SSW,203,4.7,4.7,91,0.15,,,0.32,WUHU216HW,2013-05-19 15:58:00,
2013-05-19 12:00:00,66.4,63.6,29.93,South,180,3.4,4.7,91,0.15,,,0.32,WUHU216HW,2013-05-19 16:00:00,
2013-05-19 12:01:00,66.4,63.6,29.93,SE,135,3.6,4.7,91,0.15,,,0.32,WUHU216HW,2013-05-19 16:01:00,
2013-05-19 12:03:00,66.4,63.6,29.93,SSE,158,4.0,4.7,91,0.15,,,0.32,WUHU216HW,2013-05-19 16:03:00,
2013-05-19 12:06:00,66.2,63.8,29.93,South,185,1.5,4.7,92,0.16,,,0.33,WUHU216HW,2013-05-19 16:06:00,
2013-05-19 12:07:00,66.4,64.0,29.93,South,185,1.2,4.7,92,0.16,,,0.33,WUHU216HW,2013-05-19 16:07:00,
2013-05-19 12:08:00,66.2,63.8,29.93,SSW,203,2.5,4.0,92,0.16,,,0.33,WUHU216HW,2013-05-19 16:08:00,
2013-05-19 12:11:00,66.2,63.8,29.93,WSW,248,4.0,4.0,92,0.16,,,0.33,WUHU216HW,2013-05-19 16:11:00,
2013-05-19 12:12:00,66.2,63.8,29.93,SW,221,3.3,4.0,92,0.16,,,0.33,WUHU216HW,2013-05-19 16:12:00,
2013-05-19 12:13:00,66.2,63.8,29.92,SSW,203,2.9,4.0,92,0.16,,,0.33,WUHU216HW,2013-05-19 16:13:00,
2013-05-19 12:15:00,66.2,63.5,29.93,SSW,211,1.0,4.0,91,0.16,,,0.33,WUHU216HW,2013-05-19 16:15:00,
2013-05-19 12:17:00,66.2,63.8,29.93,WSW,248,0.7,4.0,92,0.16,,,0.33,WUHU216HW,2013-05-19 16:17:00,
2013-05-19 12:18:00,66.2,63.5,29.93,WSW,248,2.7,4.0,91,0.16,,,0.33,WUHU216HW,2013-05-19 16:18:00,
2013-05-19 12:19:00,66.2,63.8,29.93,WSW,248,1.6,4.0,92,0.16,,,0.33,WUHU216HW,2013-05-19 16:19:00,
2013-05-19 12:21:00,66.2,63.8,29.93,West,270,2.5,2.9,92,0.17,,,0.34,WUHU216HW,2013-05-19 16:21:00,
2013-05-19 12:23:00,66.1,63.4,29.94,SSE,165,2.5,3.4,91,0.17,,,0.34,WUHU216HW,2013-05-19 16:23:00,
2013-05-19 12:24:00,66.2,63.5,29.94,WSW,248,2.0,3.4,91,0.17,,,0.34,WUHU216HW,2013-05-19 16:24:00,
2013-05-19 12:26:00,66.1,63.6,29.93,SSE,158,2.0,3.4,92,0.17,,,0.34,WUHU216HW,2013-05-19 16:26:00,
2013-05-19 12:27:00,66.1,63.6,29.93,SW,225,2.9,3.4,92,0.17,,,0.34,WUHU216HW,2013-05-19 16:27:00,
2013-05-19 12:29:00,65.9,63.5,29.93,SSW,205,2.0,3.4,92,0.17,,,0.34,WUHU216HW,2013-05-19 16:29:00,
2013-05-19 12:30:00,65.9,63.5,29.93,SE,135,1.6,3.4,92,0.17,,,0.34,WUHU216HW,2013-05-19 16:30:00,
2013-05-19 12:31:00,65.9,63.5,29.92,SSE,158,4.0,4.0,92,0.17,,,0.34,WUHU216HW,2013-05-19 16:31:00,
2013-05-19 12:32:00,65.9,63.5,29.92,SSE,158,4.0,4.0,92,0.17,,,0.34,WUHU216HW,2013-05-19 16:32:00,
2013-05-19 12:34:00,65.9,63.5,29.93,WSW,248,1.1,4.0,92,0.18,,,0.35,WUHU216HW,2013-05-19 16:34:00,
2013-05-19 12:35:00,65.9,63.5,29.93,WSW,248,1.1,4.0,92,0.18,,,0.35,WUHU216HW,2013-05-19 16:35:00,
2013-05-19 12:36:00,65.7,63.3,29.94,SSE,158,2.0,4.0,92,0.18,,,0.35,WUHU216HW,2013-05-19 16:36:00,
2013-05-19 12:37:00,65.7,63.0,29.94,SE,135,2.9,4.0,91,0.18,,,0.35,WUHU216HW,2013-05-19 16:37:00,
2013-05-19 12:39:00,65.5,62.8,29.93,SE,135,4.3,4.3,91,0.19,,,0.36,WUHU216HW,2013-05-19 16:39:00,
2013-05-19 12:40:00,65.5,62.8,29.93,SE,135,4.3,4.3,91,0.19,,,0.36,WUHU216HW,2013-05-19 16:40:00,
2013-05-19 12:41:00,65.5,62.8,29.93,SE,135,4.3,4.3,91,0.19,,,0.36,WUHU216HW,2013-05-19 16:41:00,
2013-05-19 12:43:00,65.5,62.8,29.93,SE,135,4.3,4.3,91,0.19,,,0.36,WUHU216HW,2013-05-19 16:43:00,
2013-05-19 12:45:00,65.5,62.8,29.93,SE,135,4.3,4.3,91,0.19,,,0.36,WUHU216HW,2013-05-19 16:45:00,
2013-05-19 12:46:00,65.5,62.8,29.93,SE,135,4.3,4.3,91,0.19,,,0.36,WUHU216HW,2013-05-19 16:46:00,
2013-05-19 12:47:00,65.5,62.8,29.93,SE,135,4.3,4.3,91,0.19,,,0.36,WUHU216HW,2013-05-19 16:47:00,
2013-05-19 12:48:00,65.5,62.8,29.93,SE,135,4.3,4.3,91,0.19,,,0.36,WUHU216HW,2013-05-19 16:48:00,
2013-05-19 13:00:00,64.6,62.0,29.98,NE,45,2.9,2.9,91,0.04,,,0.36,WUHU216HW,2013-05-19 17:00:00,
2013-05-19 13:01:00,64.6,62.3,29.98,NE,45,4.3,4.3,92,0.16,,,0.48,WUHU216HW,2013-05-19 17:01:00,
2013-05-19 13:02:00,64.6,62.3,29.97,NE,45,3.4,4.3,92,0.15,,,0.48,WUHU216HW,2013-05-19 17:02:00,
2013-05-19 13:05:00,64.4,61.8,29.97,WSW,248,2.2,4.3,91,0.23,,,0.56,WUHU216HW,2013-05-19 17:05:00,
2013-05-19 13:06:00,64.4,61.8,29.97,WSW,248,2.7,4.3,91,0.25,,,0.58,WUHU216HW,2013-05-19 17:06:00,
2013-05-19 13:07:00,64.4,61.8,29.96,WSW,248,2.2,4.3,91,0.27,,,0.60,WUHU216HW,2013-05-19 17:07:00,
2013-05-19 13:09:00,64.4,61.8,29.96,SSW,208,1.5,4.3,91,0.30,,,0.63,WUHU216HW,2013-05-19 17:09:00,
2013-05-19 13:11:00,64.4,61.8,29.95,South,180,5.1,5.1,91,0.33,,,0.66,WUHU216HW,2013-05-19 17:11:00,
2013-05-19 13:14:00,64.4,61.8,29.92,SSW,203,5.4,5.4,91,0.44,,,0.77,WUHU216HW,2013-05-19 17:14:00,
2013-05-19 13:16:00,64.3,61.7,29.94,SSE,159,3.3,5.4,91,0.53,,,0.86,WUHU216HW,2013-05-19 17:16:00,
2013-05-19 13:17:00,64.3,61.7,29.94,SSE,159,3.3,5.4,91,0.53,,,0.86,WUHU216HW,2013-05-19 17:17:00,
2013-05-19 13:19:00,64.3,61.9,29.94,ESE,121,7.3,8.9,92,0.58,,,0.92,WUHU216HW,2013-05-19 17:19:00,
2013-05-19 13:20:00,64.1,61.7,29.94,SE,127,4.5,8.9,92,0.61,,,0.95,WUHU216HW,2013-05-19 17:20:00,
2013-05-19 13:22:00,64.1,61.7,29.94,ESE,113,6.9,8.9,92,0.62,,,0.96,WUHU216HW,2013-05-19 17:22:00,
2013-05-19 13:23:00,64.1,61.7,29.94,ESE,113,6.9,8.9,92,0.62,,,0.96,WUHU216HW,2013-05-19 17:23:00,
2013-05-19 13:25:00,64.1,61.7,29.93,East,99,2.8,8.9,92,0.62,,,0.96,WUHU216HW,2013-05-19 17:25:00,
2013-05-19 13:28:00,64.1,61.7,29.94,WSW,248,1.3,6.9,92,0.62,,,0.96,WUHU216HW,2013-05-19 17:28:00,
2013-05-19 13:29:00,64.1,61.7,29.95,North,0,0.4,6.9,92,0.62,,,0.96,WUHU216HW,2013-05-19 17:29:00,
2013-05-19 13:30:00,64.1,61.7,29.95,North,0,0.4,6.9,92,0.62,,,0.96,WUHU216HW,2013-05-19 17:30:00,
2013-05-19 13:31:00,64.1,61.7,29.95,NE,45,1.1,6.9,92,0.61,,,0.96,WUHU216HW,2013-05-19 17:31:00,
2013-05-19 13:32:00,64.1,62.1,29.94,East,90,1.8,3.4,93,0.61,,,0.96,WUHU216HW,2013-05-19 17:32:00,
2013-05-19 13:34:00,64.1,61.7,29.94,ESE,113,5.1,5.1,92,0.61,,,0.96,WUHU216HW,2013-05-19 17:34:00,
2013-05-19 13:35:00,64.3,61.9,29.94,SE,135,5.1,5.1,92,0.61,,,0.96,WUHU216HW,2013-05-19 17:35:00,
2013-05-19 13:37:00,64.1,61.7,29.94,SE,124,4.8,5.1,92,0.60,,,0.96,WUHU216HW,2013-05-19 17:37:00,
2013-05-19 13:39:00,64.3,61.9,29.93,ESE,113,4.0,5.1,92,0.48,,,0.96,WUHU216HW,2013-05-19 17:39:00,
2013-05-19 13:40:00,64.3,61.9,29.93,East,100,2.8,5.1,92,0.48,,,0.96,WUHU216HW,2013-05-19 17:40:00,
2013-05-19 13:41:00,64.3,61.9,29.93,ENE,62,0.9,5.1,92,0.48,,,0.96,WUHU216HW,2013-05-19 17:41:00,
2013-05-19 13:42:00,64.3,62.3,29.93,WNW,293,1.1,5.1,93,0.48,,,0.96,WUHU216HW,2013-05-19 17:42:00,
2013-05-19 13:44:00,64.4,62.1,29.94,NW,315,1.3,5.1,92,0.48,,,0.96,WUHU216HW,2013-05-19 17:44:00,
2013-05-19 13:45:00,64.4,62.1,29.94,WSW,248,3.4,4.5,92,0.48,,,0.96,WUHU216HW,2013-05-19 17:45:00,
2013-05-19 13:46:00,64.4,62.1,29.94,WSW,248,3.4,4.5,92,0.48,,,0.96,WUHU216HW,2013-05-19 17:46:00,
2013-05-19 13:47:00,64.4,62.1,29.94,WSW,255,2.5,4.5,92,0.48,,,0.96,WUHU216HW,2013-05-19 17:47:00,
2013-05-19 13:48:00,64.4,62.1,29.94,NW,305,1.4,4.0,92,0.48,,,0.96,WUHU216HW,2013-05-19 17:48:00,
2013-05-19 13:51:00,64.4,62.1,29.94,North,0,4.7,4.7,92,0.48,,,0.96,WUHU216HW,2013-05-19 17:51:00,
2013-05-19 13:52:00,64.4,62.1,29.94,North,0,3.6,4.7,92,0.48,,,0.96,WUHU216HW,2013-05-19 17:52:00,
2013-05-19 13:53:00,64.4,62.1,29.95,NNW,345,1.7,4.7,92,0.48,,,0.96,WUHU216HW,2013-05-19 17:53:00,
2013-05-19 13:56:00,64.4,62.1,29.95,NE,45,2.5,4.7,92,0.48,,,0.96,WUHU216HW,2013-05-19 17:56:00,
2013-05-19 13:57:00,64.4,62.1,29.95,NNE,25,2.3,4.7,92,0.48,,,0.96,WUHU216HW,2013-05-19 17:57:00,
2013-05-19 13:58:00,64.4,62.1,29.95,SE,135,3.8,4.7,92,0.48,,,0.96,WUHU216HW,2013-05-19 17:58:00,
2013-05-19 13:59:00,64.4,62.1,29.95,SE,135,3.8,4.7,92,0.48,,,0.96,WUHU216HW,2013-05-19 17:59:00,
2013-05-19 14:01:00,64.6,62.6,29.96,ENE,68,6.9,6.9,93,0.46,,,0.96,WUHU216HW,2013-05-19 18:01:00,
2013-05-19 14:03:00,64.6,62.3,29.96,ESE,113,7.2,7.2,92,0.40,,,0.96,WUHU216HW,2013-05-19 18:03:00,
2013-05-19 14:04:00,64.6,62.3,29.96,ESE,113,7.2,7.2,92,0.40,,,0.96,WUHU216HW,2013-05-19 18:04:00,
2013-05-19 14:05:00,64.6,62.3,29.96,SE,128,6.6,8.5,92,0.36,,,0.96,WUHU216HW,2013-05-19 18:05:00,
2013-05-19 14:07:00,64.6,62.3,29.96,East,90,4.0,8.5,92,0.32,,,0.96,WUHU216HW,2013-05-19 18:07:00,
2013-05-19 14:09:00,64.6,62.3,29.96,East,80,3.5,8.5,92,0.30,,,0.96,WUHU216HW,2013-05-19 18:09:00,
2013-05-19 14:10:00,64.6,62.3,29.96,SSE,158,1.6,8.5,92,0.24,,,0.96,WUHU216HW,2013-05-19 18:10:00,
2013-05-19 14:11:00,64.6,62.3,29.96,SSE,158,1.6,8.5,92,0.19,,,0.96,WUHU216HW,2013-05-19 18:11:00,
2013-05-19 14:14:00,64.6,62.3,29.96,SW,225,5.1,5.1,92,0.11,,,0.96,WUHU216HW,2013-05-19 18:14:00,
2013-05-19 14:16:00,64.6,62.3,29.96,ESE,113,4.0,5.1,92,0.08,,,0.96,WUHU216HW,2013-05-19 18:16:00,
2013-05-19 14:19:00,64.6,62.3,29.96,SE,135,3.9,5.1,92,0.01,,,0.96,WUHU216HW,2013-05-19 18:19:00,
2013-05-19 14:20:00,64.6,62.3,29.96,SE,135,3.9,5.1,92,0.01,,,0.96,WUHU216HW,2013-05-19 18:20:00,
2013-05-19 14:22:00,64.6,62.3,29.97,SSE,158,3.4,5.1,92,0.00,,,0.96,WUHU216HW,2013-05-19 18:22:00,
2013-05-19 14:24:00,64.6,62.3,29.96,ESE,111,2.3,5.1,92,0.00,,,0.96,WUHU216HW,2013-05-19 18:24:00,
2013-05-19 14:25:00,64.6,62.3,29.96,ESE,111,2.3,5.1,92,0.00,,,0.96,WUHU216HW,2013-05-19 18:25:00,
2013-05-19 14:28:00,64.6,62.3,29.95,East,90,4.3,6.3,92,0.00,,,0.96,WUHU216HW,2013-05-19 18:28:00,
2013-05-19 14:30:00,64.4,62.1,29.96,East,90,4.3,6.3,92,0.00,,,0.96,WUHU216HW,2013-05-19 18:30:00,
2013-05-19 14:31:00,64.4,62.1,29.96,North,0,4.9,6.3,92,0.00,,,0.96,WUHU216HW,2013-05-19 18:31:00,
2013-05-19 14:33:00,64.4,62.1,29.97,North,349,3.7,6.3,92,0.00,,,0.96,WUHU216HW,2013-05-19 18:33:00,
2013-05-19 14:34:00,64.4,62.1,29.97,NNW,334,2.1,6.3,92,0.00,,,0.96,WUHU216HW,2013-05-19 18:34:00,
2013-05-19 14:35:00,64.4,62.1,29.97,NNW,334,2.1,6.3,92,0.00,,,0.96,WUHU216HW,2013-05-19 18:35:00,
2013-05-19 14:36:00,64.4,62.1,29.97,NNE,23,0.7,4.9,92,0.00,,,0.96,WUHU216HW,2013-05-19 18:36:00,
2013-05-19 14:37:00,64.4,62.1,29.97,WSW,248,0.9,4.9,92,0.00,,,0.96,WUHU216HW,2013-05-19 18:37:00,
2013-05-19 14:39:00,64.4,62.1,29.97,WSW,248,2.5,4.9,92,0.04,,,1.00,WUHU216HW,2013-05-19 18:39:00,
2013-05-19 14:40:00,64.4,62.1,29.97,SSW,203,3.1,4.7,92,0.11,,,1.07,WUHU216HW,2013-05-19 18:40:00,
2013-05-19 14:41:00,64.4,62.1,29.97,South,182,2.9,3.8,92,0.15,,,1.11,WUHU216HW,2013-05-19 18:41:00,
2013-05-19 14:42:00,64.4,62.1,29.97,South,182,2.9,3.8,92,0.15,,,1.11,WUHU216HW,2013-05-19 18:42:00,
2013-05-19 14:44:00,64.4,62.1,29.97,WSW,248,0.8,3.1,92,0.24,,,1.20,WUHU216HW,2013-05-19 18:44:00,
2013-05-19 14:45:00,64.4,62.1,29.97,WSW,248,0.8,3.1,92,0.24,,,1.20,WUHU216HW,2013-05-19 18:45:00,
2013-05-19 14:46:00,64.4,62.1,29.98,North,0,1.8,3.1,92,0.24,,,1.20,WUHU216HW,2013-05-19 18:46:00,
2013-05-19 14:47:00,64.4,62.1,29.98,North,351,1.5,3.1,92,0.28,,,1.24,WUHU216HW,2013-05-19 18:47:00,
2013-05-19 14:50:00,64.4,62.1,29.98,NNW,343,0.8,3.1,92,0.37,,,1.33,WUHU216HW,2013-05-19 18:50:00,
2013-05-19 14:51:00,64.4,62.1,29.98,NE,45,1.1,2.7,92,0.39,,,1.35,WUHU216HW,2013-05-19 18:51:00,
2013-05-19 14:52:00,64.4,62.1,29.97,South,180,1.1,1.8,92,0.40,,,1.36,WUHU216HW,2013-05-19 18:52:00,
2013-05-19 14:53:00,64.3,61.9,29.97,ESE,113,3.4,3.4,92,0.43,,,1.39,WUHU216HW,2013-05-19 18:53:00,
2013-05-19 14:55:00,64.3,61.9,29.97,ESE,113,4.0,4.0,92,0.45,,,1.41,WUHU216HW,2013-05-19 18:55:00,
2013-05-19 14:56:00,64.3,61.9,29.96,ESE,122,3.5,4.0,92,0.45,,,1.41,WUHU216HW,2013-05-19 18:56:00,
2013-05-19 14:58:00,64.1,61.7,29.96,East,100,4.3,4.9,92,0.47,,,1.43,WUHU216HW,2013-05-19 18:58:00,
2013-05-19 14:59:00,64.1,61.7,29.96,SE,135,4.9,4.9,92,0.48,,,1.44,WUHU216HW,2013-05-19 18:59:00,
2013-05-19 15:00:00,64.1,61.7,29.96,ESE,123,3.7,4.9,92,0.49,,,1.45,WUHU216HW,2013-05-19 19:00:00,
2013-05-19 15:02:00,64.1,61.7,29.96,SE,135,4.7,4.9,92,0.49,,,1.45,WUHU216HW,2013-05-19 19:02:00,
2013-05-19 15:03:00,64.1,61.7,29.96,SE,129,3.1,4.9,92,0.49,,,1.45,WUHU216HW,2013-05-19 19:03:00,
2013-05-19 15:05:00,64.1,61.7,29.95,ESE,112,3.8,4.9,92,0.51,,,1.47,WUHU216HW,2013-05-19 19:05:00,
2013-05-19 15:07:00,64.1,61.7,29.96,NE,45,2.9,4.9,92,0.53,,,1.49,WUHU216HW,2013-05-19 19:07:00,
2013-05-19 15:09:00,64.1,61.7,29.96,ENE,68,2.3,4.9,92,0.54,,,1.50,WUHU216HW,2013-05-19 19:09:00,
2013-05-19 15:10:00,64.1,61.7,29.96,ESE,113,1.4,4.9,92,0.56,,,1.52,WUHU216HW,2013-05-19 19:10:00,
2013-05-19 15:11:00,64.1,61.7,29.96,SE,135,3.4,4.9,92,0.56,,,1.52,WUHU216HW,2013-05-19 19:11:00,
2013-05-19 15:13:00,64.1,61.7,29.96,SE,135,3.6,4.9,92,0.57,,,1.53,WUHU216HW,2013-05-19 19:13:00,
2013-05-19 15:14:00,64.1,61.7,29.96,SE,135,3.2,3.6,92,0.57,,,1.53,WUHU216HW,2013-05-19 19:14:00,
2013-05-19 15:15:00,64.1,61.7,29.95,SE,135,4.5,4.5,92,0.57,,,1.53,WUHU216HW,2013-05-19 19:15:00,
2013-05-19 15:16:00,64.1,61.7,29.95,SE,135,4.0,4.5,92,0.57,,,1.53,WUHU216HW,2013-05-19 19:16:00,
2013-05-19 15:18:00,64.1,61.7,29.95,SE,135,3.8,4.5,92,0.57,,,1.53,WUHU216HW,2013-05-19 19:18:00,
2013-05-19 15:19:00,64.1,61.7,29.95,SE,130,2.5,4.5,92,0.57,,,1.53,WUHU216HW,2013-05-19 19:19:00,
2013-05-19 15:20:00,64.1,61.7,29.95,SE,135,2.5,4.5,92,0.57,,,1.53,WUHU216HW,2013-05-19 19:20:00,
2013-05-19 15:21:00,64.1,61.7,29.95,SE,125,2.3,4.5,92,0.57,,,1.53,WUHU216HW,2013-05-19 19:21:00,
2013-05-19 15:22:00,64.1,61.7,29.95,ESE,120,1.5,4.5,92,0.57,,,1.53,WUHU216HW,2013-05-19 19:22:00,
2013-05-19 15:24:00,64.1,61.7,29.95,East,90,1.8,4.5,92,0.57,,,1.53,WUHU216HW,2013-05-19 19:24:00,
2013-05-19 15:25:00,64.1,61.7,29.95,ESE,113,1.7,3.8,92,0.57,,,1.53,WUHU216HW,2013-05-19 19:25:00,
2013-05-19 15:26:00,64.1,61.7,29.95,ESE,113,1.7,3.8,92,0.57,,,1.53,WUHU216HW,2013-05-19 19:26:00,
2013-05-19 15:27:00,64.1,61.7,29.95,SE,135,1.1,3.8,92,0.57,,,1.53,WUHU216HW,2013-05-19 19:27:00,
2013-05-19 15:30:00,64.1,61.7,29.95,SE,135,0.4,2.0,92,0.57,,,1.53,WUHU216HW,2013-05-19 19:30:00,
2013-05-19 15:31:00,64.1,61.7,29.95,SE,135,0.4,2.0,92,0.57,,,1.53,WUHU216HW,2013-05-19 19:31:00,
2013-05-19 15:32:00,64.3,61.9,29.95,ESE,113,0.4,1.8,92,0.57,,,1.53,WUHU216HW,2013-05-19 19:32:00,
2013-05-19 15:33:00,64.3,61.9,29.95,ESE,113,0.0,1.8,92,0.57,,,1.53,WUHU216HW,2013-05-19 19:33:00,
2013-05-19 15:36:00,64.1,61.7,29.95,ESE,113,0.4,1.1,92,0.57,,,1.53,WUHU216HW,2013-05-19 19:36:00,
2013-05-19 15:37:00,64.1,61.7,29.95,SSE,167,1.1,1.3,92,0.54,,,1.54,WUHU216HW,2013-05-19 19:37:00,
2013-05-19 15:38:00,64.1,61.7,29.95,SSE,167,1.1,1.3,92,0.54,,,1.54,WUHU216HW,2013-05-19 19:38:00,
2013-05-19 15:39:00,64.1,61.7,29.95,South,180,0.9,1.3,92,0.54,,,1.54,WUHU216HW,2013-05-19 19:39:00,
2013-05-19 15:41:00,64.1,61.7,29.95,South,180,0.9,1.3,92,0.54,,,1.54,WUHU216HW,2013-05-19 19:41:00,
2013-05-19 15:43:00,64.1,61.7,29.95,South,180,0.9,1.3,92,0.54,,,1.54,WUHU216HW,2013-05-19 19:43:00,
2013-05-19 15:45:00,64.1,61.7,29.95,South,180,0.9,1.3,92,0.54,,,1.54,WUHU216HW,2013-05-19 19:45:00,
2013-05-19 15:46:00,64.1,61.7,29.95,South,180,0.9,1.3,92,0.54,,,1.54,WUHU216HW,2013-05-19 19:46:00,
2013-05-19 16:00:00,63.9,61.6,29.95,SSW,203,4.3,4.3,92,0.09,,,1.54,WUHU216HW,2013-05-19 20:00:00,
2013-05-19 16:01:00,63.9,61.6,29.96,SSW,204,2.4,4.3,92,0.09,,,1.54,WUHU216HW,2013-05-19 20:01:00,
2013-05-19 16:05:00,63.9,61.6,29.98,North,0,2.5,4.3,92,0.05,,,1.54,WUHU216HW,2013-05-19 20:05:00,
2013-05-19 16:07:00,63.9,61.6,29.99,WNW,301,2.7,4.3,92,0.04,,,1.55,WUHU216HW,2013-05-19 20:07:00,
2013-05-19 16:10:00,63.7,61.4,30.00,NNW,346,2.9,4.0,92,0.02,,,1.55,WUHU216HW,2013-05-19 20:10:00,
2013-05-19 16:11:00,63.7,61.4,30.00,NNW,338,2.5,4.0,92,0.02,,,1.55,WUHU216HW,2013-05-19 20:11:00,
2013-05-19 16:12:00,63.7,61.4,30.00,NNW,328,2.3,4.0,92,0.03,,,1.56,WUHU216HW,2013-05-19 20:12:00,
2013-05-19 16:13:00,63.7,61.4,30.00,NNW,331,1.4,4.0,92,0.04,,,1.57,WUHU216HW,2013-05-19 20:13:00,
2013-05-19 16:17:00,63.7,61.4,29.99,NW,315,0.9,4.0,92,0.05,,,1.58,WUHU216HW,2013-05-19 20:17:00,
2013-05-19 16:18:00,63.7,61.4,29.99,NNW,338,1.0,4.0,92,0.07,,,1.60,WUHU216HW,2013-05-19 20:18:00,
2013-05-19 16:19:00,63.7,61.4,29.99,NNW,338,1.8,2.5,92,0.08,,,1.61,WUHU216HW,2013-05-19 20:19:00,
2013-05-19 16:22:00,63.7,61.4,29.98,North,0,0.2,2.9,92,0.09,,,1.62,WUHU216HW,2013-05-19 20:22:00,
2013-05-19 16:23:00,63.7,61.4,29.98,North,0,0.0,2.9,92,0.09,,,1.62,WUHU216HW,2013-05-19 20:23:00,
2013-05-19 16:24:00,63.7,61.4,29.98,North,0,0.0,2.9,92,0.09,,,1.62,WUHU216HW,2013-05-19 20:24:00,
2013-05-19 16:25:00,63.7,61.4,29.98,East,90,0.4,2.9,92,0.10,,,1.63,WUHU216HW,2013-05-19 20:25:00,
2013-05-19 16:27:00,63.7,61.4,29.98,SSW,203,2.5,2.9,92,0.10,,,1.63,WUHU216HW,2013-05-19 20:27:00,
2013-05-19 16:28:00,63.7,61.4,29.97,SSW,212,2.2,2.9,92,0.11,,,1.64,WUHU216HW,2013-05-19 20:28:00,
2013-05-19 16:29:00,63.7,61.4,29.97,SSW,212,2.2,2.9,92,0.11,,,1.64,WUHU216HW,2013-05-19 20:29:00,
2013-05-19 16:31:00,63.7,61.4,29.97,SW,225,1.2,2.5,92,0.11,,,1.64,WUHU216HW,2013-05-19 20:31:00,
2013-05-19 16:34:00,63.5,61.2,29.97,SE,135,1.1,2.5,92,0.11,,,1.64,WUHU216HW,2013-05-19 20:34:00,
2013-05-19 16:35:00,63.5,61.2,29.97,SW,225,1.6,2.5,92,0.11,,,1.65,WUHU216HW,2013-05-19 20:35:00,
2013-05-19 16:36:00,63.5,61.2,29.97,SE,135,3.1,3.1,92,0.11,,,1.65,WUHU216HW,2013-05-19 20:36:00,
2013-05-19 16:39:00,63.5,61.2,29.96,SE,144,4.2,4.9,92,0.11,,,1.65,WUHU216HW,2013-05-19 20:39:00,
2013-05-19 16:40:00,63.5,61.2,29.96,SE,144,4.2,4.9,92,0.11,,,1.65,WUHU216HW,2013-05-19 20:40:00,
2013-05-19 16:43:00,63.5,61.2,29.94,SE,135,2.8,4.9,92,0.13,,,1.67,WUHU216HW,2013-05-19 20:43:00,
2013-05-19 16:45:00,63.5,61.2,29.94,SE,129,2.9,4.9,92,0.13,,,1.67,WUHU216HW,2013-05-19 20:45:00,
2013-05-19 16:46:00,63.5,61.2,29.94,ESE,120,2.6,4.9,92,0.13,,,1.67,WUHU216HW,2013-05-19 20:46:00,
2013-05-19 16:48:00,63.4,61.0,29.94,SSE,153,2.3,4.7,92,0.15,,,1.69,WUHU216HW,2013-05-19 20:48:00,
2013-05-19 16:49:00,63.4,61.0,29.94,SSE,153,2.3,4.7,92,0.15,,,1.69,WUHU216HW,2013-05-19 20:49:00,
2013-05-19 16:50:00,63.4,61.0,29.94,SE,135,2.2,3.6,92,0.15,,,1.69,WUHU216HW,2013-05-19 20:50:00,
2013-05-19 16:51:00,63.4,61.0,29.94,SE,145,2.0,3.6,92,0.15,,,1.69,WUHU216HW,2013-05-19 20:51:00,
2013-05-19 16:53:00,63.4,61.0,29.94,SSE,158,1.1,3.6,92,0.15,,,1.69,WUHU216HW,2013-05-19 20:53:00,
2013-05-19 16:56:00,63.4,61.0,29.95,SW,225,0.4,2.7,92,0.15,,,1.69,WUHU216HW,2013-05-19 20:56:00,
2013-05-19 16:57:00,63.4,61.0,29.95,SW,225,0.4,2.7,92,0.15,,,1.69,WUHU216HW,2013-05-19 20:57:00,
2013-05-19 16:58:00,63.4,61.0,29.95,SW,225,0.4,2.2,92,0.15,,,1.69,WUHU216HW,2013-05-19 20:58:00,
2013-05-19 16:59:00,63.4,61.4,29.96,SW,225,0.4,2.2,93,0.15,,,1.69,WUHU216HW,2013-05-19 20:59:00,
2013-05-19 17:02:00,63.4,61.4,29.96,NW,315,0.7,0.7,93,0.15,,,1.69,WUHU216HW,2013-05-19 21:02:00,
2013-05-19 17:03:00,63.4,61.4,29.96,WNW,293,0.2,0.7,93,0.15,,,1.69,WUHU216HW,2013-05-19 21:03:00,
2013-05-19 17:07:00,63.4,61.4,29.96,SSE,158,1.3,1.3,93,0.14,,,1.69,WUHU216HW,2013-05-19 21:07:00,
2013-05-19 17:08:00,63.2,61.2,29.96,SE,142,1.0,1.3,93,0.14,,,1.69,WUHU216HW,2013-05-19 21:08:00,
2013-05-19 17:09:00,63.2,61.2,29.96,SE,135,1.6,1.6,93,0.14,,,1.69,WUHU216HW,2013-05-19 21:09:00,
2013-05-19 17:14:00,63.2,61.2,29.95,SW,225,1.1,1.6,93,0.11,,,1.69,WUHU216HW,2013-05-19 21:14:00,
2013-05-19 17:16:00,63.2,61.2,29.94,SSE,158,3.1,3.1,93,0.10,,,1.69,WUHU216HW,2013-05-19 21:16:00,
2013-05-19 17:19:00,63.2,61.2,29.94,SSE,164,2.7,3.8,93,0.08,,,1.69,WUHU216HW,2013-05-19 21:19:00,
2013-05-19 17:20:00,63.2,61.2,29.94,South,180,1.8,3.8,93,0.08,,,1.69,WUHU216HW,2013-05-19 21:20:00,
2013-05-19 17:21:00,63.2,61.2,29.94,SSW,203,3.4,3.8,93,0.07,,,1.69,WUHU216HW,2013-05-19 21:21:00,
2013-05-19 17:22:00,63.2,61.2,29.94,SE,135,4.0,4.0,93,0.07,,,1.69,WUHU216HW,2013-05-19 21:22:00,
2013-05-19 17:24:00,63.2,61.2,29.93,SSE,158,1.6,4.0,93,0.06,,,1.69,WUHU216HW,2013-05-19 21:24:00,
2013-05-19 17:25:00,63.2,61.2,29.93,SSE,158,0.7,4.0,93,0.06,,,1.69,WUHU216HW,2013-05-19 21:25:00,
2013-05-19 17:26:00,63.2,61.2,29.93,SSE,158,0.7,4.0,93,0.06,,,1.69,WUHU216HW,2013-05-19 21:26:00,
2013-05-19 17:27:00,63.2,61.2,29.93,SSE,158,0.7,4.0,93,0.06,,,1.69,WUHU216HW,2013-05-19 21:27:00,
2013-05-19 17:28:00,63.2,61.2,29.93,SSE,158,0.7,4.0,93,0.06,,,1.69,WUHU216HW,2013-05-19 21:28:00,
2013-05-19 17:30:00,63.2,61.2,29.93,SSE,158,0.7,4.0,93,0.06,,,1.69,WUHU216HW,2013-05-19 21:30:00,
2013-05-19 17:32:00,63.2,61.2,29.93,SSE,158,0.7,2.5,93,0.06,,,1.69,WUHU216HW,2013-05-19 21:32:00,
2013-05-19 17:34:00,63.2,61.2,29.93,SSE,158,0.7,0.7,93,0.06,,,1.69,WUHU216HW,2013-05-19 21:34:00,
2013-05-19 17:54:00,63.0,61.0,29.92,West,270,1.1,1.1,93,0.00,,,1.69,WUHU216HW,2013-05-19 21:54:00,
2013-05-19 17:55:00,63.0,61.0,29.92,West,270,1.1,1.1,93,0.00,,,1.69,WUHU216HW,2013-05-19 21:55:00,
2013-05-19 17:59:00,63.0,61.0,29.92,SSW,213,1.1,1.8,93,0.01,,,1.70,WUHU216HW,2013-05-19 21:59:00,
2013-05-19 18:00:00,63.0,61.0,29.92,SSW,203,2.7,2.7,93,0.01,,,1.70,WUHU216HW,2013-05-19 22:00:00,
2013-05-19 18:01:00,63.0,61.0,29.92,South,180,2.2,2.7,93,0.01,,,1.70,WUHU216HW,2013-05-19 22:01:00,
2013-05-19 18:04:00,63.0,61.0,29.92,SW,225,4.0,4.0,93,0.01,,,1.70,WUHU216HW,2013-05-19 22:04:00,
2013-05-19 18:05:00,63.0,61.0,29.91,SSW,192,3.9,4.0,93,0.01,,,1.70,WUHU216HW,2013-05-19 22:05:00,
2013-05-19 18:06:00,63.0,61.0,29.91,SSE,149,3.2,4.0,93,0.01,,,1.70,WUHU216HW,2013-05-19 22:06:00,
2013-05-19 18:10:00,62.8,60.9,29.92,SE,135,3.6,4.0,93,0.03,,,1.72,WUHU216HW,2013-05-19 22:10:00,
2013-05-19 18:11:00,63.0,61.0,29.92,SSE,168,3.5,4.0,93,0.03,,,1.72,WUHU216HW,2013-05-19 22:11:00,
2013-05-19 18:12:00,63.0,61.0,29.92,SSE,168,3.5,4.0,93,0.03,,,1.72,WUHU216HW,2013-05-19 22:12:00,
2013-05-19 18:15:00,62.8,60.9,29.91,East,90,4.3,5.4,93,0.03,,,1.72,WUHU216HW,2013-05-19 22:15:00,
2013-05-19 18:16:00,62.8,60.9,29.90,South,180,4.7,5.4,93,0.03,,,1.72,WUHU216HW,2013-05-19 22:16:00,
2013-05-19 18:17:00,62.8,60.9,29.89,SE,135,5.6,5.6,93,0.03,,,1.72,WUHU216HW,2013-05-19 22:17:00,
2013-05-19 18:18:00,62.8,60.9,29.89,SE,135,5.6,5.6,93,0.03,,,1.72,WUHU216HW,2013-05-19 22:18:00,
2013-05-19 18:20:00,62.8,60.9,29.89,SE,135,4.7,5.6,93,0.05,,,1.74,WUHU216HW,2013-05-19 22:20:00,
2013-05-19 18:22:00,62.6,60.7,29.89,South,180,4.4,5.6,93,0.05,,,1.74,WUHU216HW,2013-05-19 22:22:00,
2013-05-19 18:23:00,62.6,60.7,29.89,South,180,4.4,5.6,93,0.05,,,1.74,WUHU216HW,2013-05-19 22:23:00,
2013-05-19 18:24:00,62.6,60.7,29.88,South,180,4.0,5.6,93,0.04,,,1.74,WUHU216HW,2013-05-19 22:24:00,
2013-05-19 18:26:00,62.6,60.7,29.88,SSE,158,6.0,6.0,93,0.04,,,1.74,WUHU216HW,2013-05-19 22:26:00,
2013-05-19 18:27:00,62.6,60.7,29.87,SSE,158,4.0,6.0,93,0.04,,,1.74,WUHU216HW,2013-05-19 22:27:00,
2013-05-19 18:28:00,62.6,60.7,29.87,SSE,158,4.0,6.0,93,0.04,,,1.74,WUHU216HW,2013-05-19 22:28:00,
2013-05-19 18:29:00,62.6,60.7,29.88,WSW,248,7.6,7.6,93,0.04,,,1.74,WUHU216HW,2013-05-19 22:29:00,
2013-05-19 18:32:00,62.6,60.7,29.88,SSE,158,4.7,7.6,93,0.04,,,1.74,WUHU216HW,2013-05-19 22:32:00,
2013-05-19 18:34:00,62.6,60.7,29.88,ESE,113,4.7,7.6,93,0.04,,,1.74,WUHU216HW,2013-05-19 22:34:00,
2013-05-19 18:35:00,62.6,60.7,29.88,ESE,123,4.3,7.6,93,0.04,,,1.74,WUHU216HW,2013-05-19 22:35:00,
2013-05-19 18:37:00,62.5,60.5,29.88,SSW,203,4.5,7.6,93,0.04,,,1.74,WUHU216HW,2013-05-19 22:37:00,
2013-05-19 18:39:00,62.6,60.7,29.88,ESE,113,2.5,4.7,93,0.04,,,1.74,WUHU216HW,2013-05-19 22:39:00,
2013-05-19 18:40:00,62.6,60.7,29.88,ESE,113,2.5,4.7,93,0.04,,,1.74,WUHU216HW,2013-05-19 22:40:00,
2013-05-19 18:44:00,62.5,60.5,29.90,SW,232,1.5,4.5,93,0.04,,,1.74,WUHU216HW,2013-05-19 22:44:00,
2013-05-19 18:45:00,62.5,60.5,29.90,SW,232,1.5,4.5,93,0.04,,,1.74,WUHU216HW,2013-05-19 22:45:00,
2013-05-19 18:46:00,62.5,60.5,29.89,SSE,158,0.4,4.5,93,0.04,,,1.74,WUHU216HW,2013-05-19 22:46:00,
2013-05-19 18:50:00,62.6,60.7,29.89,West,270,1.6,2.9,93,0.04,,,1.74,WUHU216HW,2013-05-19 22:50:00,
2013-05-19 18:51:00,62.5,60.5,29.90,WNW,288,1.4,2.9,93,0.04,,,1.74,WUHU216HW,2013-05-19 22:51:00,
2013-05-19 18:55:00,62.5,60.5,29.90,North,0,1.2,2.9,93,0.04,,,1.74,WUHU216HW,2013-05-19 22:55:00,
2013-05-19 18:56:00,62.5,60.5,29.90,ESE,113,2.2,2.9,93,0.04,,,1.74,WUHU216HW,2013-05-19 22:56:00,
2013-05-19 19:01:00,62.6,60.7,29.88,WSW,248,5.4,5.4,93,0.04,,,1.74,WUHU216HW,2013-05-19 23:01:00,
2013-05-19 19:02:00,62.6,60.7,29.87,SW,230,3.5,5.4,93,0.04,,,1.74,WUHU216HW,2013-05-19 23:02:00,
2013-05-19 19:03:00,62.5,60.5,29.87,West,270,4.0,5.4,93,0.04,,,1.74,WUHU216HW,2013-05-19 23:03:00,
2013-05-19 19:06:00,62.6,60.7,29.87,North,0,1.8,5.4,93,0.02,,,1.74,WUHU216HW,2013-05-19 23:06:00,
2013-05-19 19:07:00,62.6,60.7,29.88,SSE,158,2.2,5.4,93,0.02,,,1.74,WUHU216HW,2013-05-19 23:07:00,
2013-05-19 19:09:00,62.6,60.7,29.87,SE,139,1.5,5.4,93,0.02,,,1.74,WUHU216HW,2013-05-19 23:09:00,
2013-05-19 19:11:00,62.6,60.7,29.88,North,0,3.1,4.0,93,0.02,,,1.74,WUHU216HW,2013-05-19 23:11:00,
2013-05-19 19:12:00,62.6,60.7,29.89,SE,135,3.4,4.0,93,0.02,,,1.74,WUHU216HW,2013-05-19 23:12:00,
2013-05-19 19:13:00,62.6,60.7,29.89,SE,126,2.2,3.4,93,0.02,,,1.74,WUHU216HW,2013-05-19 23:13:00,
2013-05-19 19:14:00,62.6,60.7,29.89,SE,135,1.1,3.4,93,0.02,,,1.74,WUHU216HW,2013-05-19 23:14:00,
2013-05-19 19:17:00,62.8,60.9,29.89,SW,229,1.1,3.4,93,0.00,,,1.74,WUHU216HW,2013-05-19 23:17:00,
2013-05-19 19:19:00,62.8,60.9,29.89,West,270,0.0,3.4,93,0.00,,,1.74,WUHU216HW,2013-05-19 23:19:00,
2013-05-19 19:20:00,62.8,60.9,29.89,West,270,0.0,3.4,93,0.00,,,1.74,WUHU216HW,2013-05-19 23:20:00,
2013-05-19 19:23:00,62.8,60.9,29.90,WNW,293,0.7,1.8,93,0.00,,,1.74,WUHU216HW,2013-05-19 23:23:00,
2013-05-19 19:24:00,62.8,60.9,29.90,WNW,293,0.7,1.8,93,0.00,,,1.74,WUHU216HW,2013-05-19 23:24:00,
2013-05-19 19:26:00,62.8,60.9,29.90,WNW,293,0.7,0.9,93,0.00,,,1.74,WUHU216HW,2013-05-19 23:26:00,
2013-05-19 19:28:00,62.8,60.9,29.90,WNW,293,0.7,0.9,93,0.00,,,1.74,WUHU216HW,2013-05-19 23:28:00,
2013-05-19 19:29:00,62.8,60.9,29.90,WNW,293,0.7,0.9,93,0.00,,,1.74,WUHU216HW,2013-05-19 23:29:00,
2013-05-19 19:30:00,62.8,60.9,29.90,WNW,293,0.7,0.9,93,0.00,,,1.74,WUHU216HW,2013-05-19 23:30:00,
2013-05-19 19:51:00,62.6,60.3,29.89,SW,225,0.0,0.0,92,0.00,,,1.74,WUHU216HW,2013-05-19 23:51:00,
2013-05-19 19:52:00,62.6,60.3,29.89,SW,225,0.0,0.0,92,0.00,,,1.74,WUHU216HW,2013-05-19 23:52:00,
2013-05-19 19:57:00,62.6,60.3,29.88,SSW,203,3.1,3.6,92,0.00,,,1.74,WUHU216HW,2013-05-19 23:57:00,
2013-05-19 19:58:00,62.6,60.3,29.87,South,184,2.5,3.8,92,0.00,,,1.74,WUHU216HW,2013-05-19 23:58:00,
2013-05-19 20:02:00,62.6,60.3,29.88,NNW,343,0.8,3.8,92,0.00,,,1.74,WUHU216HW,2013-05-20 00:02:00,
2013-05-19 20:03:00,62.6,60.3,29.88,West,270,0.4,3.8,92,0.00,,,1.74,WUHU216HW,2013-05-20 00:03:00,
2013-05-19 20:04:00,62.6,60.3,29.87,West,270,0.0,3.8,92,0.00,,,1.74,WUHU216HW,2013-05-20 00:04:00,
2013-05-19 20:07:00,62.6,60.3,29.87,SW,216,1.5,1.8,92,0.00,,,1.74,WUHU216HW,2013-05-20 00:07:00,
2013-05-19 20:08:00,62.6,60.3,29.87,SSW,203,1.0,1.8,92,0.00,,,1.74,WUHU216HW,2013-05-20 00:08:00,
2013-05-19 20:09:00,62.6,60.3,29.88,South,178,0.6,1.8,92,0.00,,,1.74,WUHU216HW,2013-05-20 00:09:00,
2013-05-19 20:10:00,62.5,60.1,29.87,NE,45,1.6,1.8,92,0.00,,,1.74,WUHU216HW,2013-05-20 00:10:00,
2013-05-19 20:11:00,62.6,60.3,29.87,NE,54,1.0,1.8,92,0.00,,,1.74,WUHU216HW,2013-05-20 00:11:00,
2013-05-19 20:12:00,62.6,60.3,29.87,ESE,113,1.3,1.8,92,0.00,,,1.74,WUHU216HW,2013-05-20 00:12:00,
2013-05-19 20:14:00,62.6,60.3,29.87,ESE,113,1.3,1.8,92,0.00,,,1.74,WUHU216HW,2013-05-20 00:14:00,
2013-05-19 20:15:00,62.6,60.3,29.87,ESE,113,1.3,1.8,92,0.00,,,1.74,WUHU216HW,2013-05-20 00:15:00,
2013-05-19 20:17:00,62.6,60.3,29.87,ESE,113,1.3,1.6,92,0.00,,,1.74,WUHU216HW,2013-05-20 00:17:00,
2013-05-19 20:18:00,62.6,60.3,29.87,ESE,113,1.3,1.6,92,0.00,,,1.74,WUHU216HW,2013-05-20 00:18:00,
2013-05-19 20:20:00,62.6,60.3,29.87,ESE,113,1.3,1.3,92,0.00,,,1.74,WUHU216HW,2013-05-20 00:20:00,
2013-05-19 20:21:00,62.6,60.3,29.87,ESE,113,1.3,1.3,92,0.00,,,1.74,WUHU216HW,2013-05-20 00:21:00,
2013-05-19 20:42:00,62.5,60.1,29.83,North,0,4.3,4.3,92,0.00,,,1.74,WUHU216HW,2013-05-20 00:42:00,
2013-05-19 20:43:00,62.3,59.9,29.82,SSE,158,10.5,10.5,92,0.00,,,1.74,WUHU216HW,2013-05-20 00:43:00,
2013-05-19 20:47:00,62.3,60.3,29.83,SSE,158,6.9,10.5,93,0.00,,,1.74,WUHU216HW,2013-05-20 00:47:00,
2013-05-19 20:48:00,62.3,60.3,29.83,SSE,158,6.9,10.5,93,0.00,,,1.74,WUHU216HW,2013-05-20 00:48:00,
2013-05-19 20:53:00,62.3,60.3,29.84,SSE,160,1.5,6.9,93,0.00,,,1.74,WUHU216HW,2013-05-20 00:53:00,
2013-05-19 20:54:00,62.3,60.3,29.84,SSW,203,1.0,6.9,93,0.00,,,1.74,WUHU216HW,2013-05-20 00:54:00,
2013-05-19 20:58:00,62.5,60.5,29.86,ENE,68,3.6,6.7,93,0.00,,,1.74,WUHU216HW,2013-05-20 00:58:00,
2013-05-19 20:59:00,62.5,60.5,29.86,NE,53,2.7,6.7,93,0.00,,,1.74,WUHU216HW,2013-05-20 00:59:00,
2013-05-19 21:03:00,62.5,60.5,29.87,ESE,113,4.0,5.4,93,0.00,,,1.74,WUHU216HW,2013-05-20 01:03:00,
2013-05-19 21:04:00,62.5,60.5,29.88,NE,45,4.7,5.4,93,0.00,,,1.74,WUHU216HW,2013-05-20 01:04:00,
2013-05-19 21:05:00,62.5,60.5,29.88,NE,45,4.7,5.4,93,0.00,,,1.74,WUHU216HW,2013-05-20 01:05:00,
2013-05-19 21:09:00,62.5,60.5,29.89,NNW,338,5.4,5.4,93,0.00,,,1.74,WUHU216HW,2013-05-20 01:09:00,
2013-05-19 21:10:00,62.5,60.5,29.90,NNW,338,3.3,5.4,93,0.00,,,1.74,WUHU216HW,2013-05-20 01:10:00,
2013-05-19 21:11:00,62.6,60.7,29.90,NNW,338,1.1,5.4,93,0.00,,,1.74,WUHU216HW,2013-05-20 01:11:00,
2013-05-19 21:14:00,62.5,60.5,29.89,NNE,20,1.8,5.4,93,0.00,,,1.74,WUHU216HW,2013-05-20 01:14:00,
2013-05-19 21:15:00,62.5,60.5,29.89,NNE,20,1.8,5.4,93,0.00,,,1.74,WUHU216HW,2013-05-20 01:15:00,
2013-05-19 21:17:00,62.5,60.5,29.89,ENE,72,1.4,5.4,93,0.00,,,1.74,WUHU216HW,2013-05-20 01:17:00,
2013-05-19 21:18:00,62.5,60.5,29.89,NNW,338,1.8,5.4,93,0.00,,,1.74,WUHU216HW,2013-05-20 01:18:00,
2013-05-19 21:19:00,62.5,60.5,29.89,North,0,1.8,2.0,93,0.00,,,1.74,WUHU216HW,2013-05-20 01:19:00,
2013-05-19 21:21:00,62.5,60.5,29.89,NNW,338,0.4,2.0,93,0.00,,,1.74,WUHU216HW,2013-05-20 01:21:00,
2013-05-19 21:22:00,62.5,60.5,29.89,NNW,338,0.4,2.0,93,0.00,,,1.74,WUHU216HW,2013-05-20 01:22:00,
2013-05-19 21:24:00,62.3,59.9,29.90,West,270,0.4,1.8,92,0.00,,,1.74,WUHU216HW,2013-05-20 01:24:00,
2013-05-19 21:26:00,62.3,60.3,29.90,NNW,338,0.8,1.8,93,0.00,,,1.74,WUHU216HW,2013-05-20 01:26:00,
2013-05-19 21:27:00,62.3,60.3,29.90,WNW,293,1.1,1.8,93,0.00,,,1.74,WUHU216HW,2013-05-20 01:27:00,
2013-05-19 21:28:00,62.3,60.3,29.90,NW,310,0.9,1.8,93,0.00,,,1.74,WUHU216HW,2013-05-20 01:28:00,
2013-05-19 21:31:00,62.3,60.3,29.90,NNW,338,2.2,2.2,93,0.00,,,1.74,WUHU216HW,2013-05-20 01:31:00,
2013-05-19 21:32:00,62.1,60.1,29.90,NNE,25,2.0,2.2,93,0.00,,,1.74,WUHU216HW,2013-05-20 01:32:00,
2013-05-19 21:33:00,62.1,60.1,29.90,NNE,25,2.0,2.2,93,0.00,,,1.74,WUHU216HW,2013-05-20 01:33:00,
2013-05-19 21:34:00,62.1,60.1,29.90,North,0,1.7,2.2,93,0.00,,,1.74,WUHU216HW,2013-05-20 01:34:00,
2013-05-19 21:36:00,62.1,60.1,29.90,North,0,0.7,2.2,93,0.00,,,1.74,WUHU216HW,2013-05-20 01:36:00,
2013-05-19 21:37:00,62.1,60.1,29.91,North,0,2.5,2.5,93,0.00,,,1.74,WUHU216HW,2013-05-20 01:37:00,
2013-05-19 21:38:00,62.1,60.1,29.91,North,0,2.5,2.5,93,0.00,,,1.74,WUHU216HW,2013-05-20 01:38:00,
2013-05-19 21:39:00,62.1,60.1,29.91,NNE,13,1.8,2.5,93,0.00,,,1.74,WUHU216HW,2013-05-20 01:39:00,
2013-05-19 21:42:00,61.9,60.0,29.91,North,0,1.8,2.5,93,0.00,,,1.74,WUHU216HW,2013-05-20 01:42:00,
2013-05-19 21:43:00,61.9,60.0,29.91,North,0,1.8,2.5,93,0.00,,,1.74,WUHU216HW,2013-05-20 01:43:00,
2013-05-19 21:45:00,61.9,60.0,29.91,North,0,0.4,2.5,93,0.00,,,1.74,WUHU216HW,2013-05-20 01:45:00,
2013-05-19 21:46:00,61.9,60.0,29.91,NNE,23,0.4,2.5,93,0.00,,,1.74,WUHU216HW,2013-05-20 01:46:00,
2013-05-19 21:47:00,61.9,60.0,29.91,NNE,23,1.1,2.2,93,0.00,,,1.74,WUHU216HW,2013-05-20 01:47:00,
2013-05-19 21:49:00,61.9,60.0,29.91,NW,315,1.6,2.0,93,0.00,,,1.74,WUHU216HW,2013-05-20 01:49:00,
2013-05-19 21:50:00,61.9,60.0,29.91,North,9,1.1,1.8,93,0.00,,,1.74,WUHU216HW,2013-05-20 01:50:00,
2013-05-19 21:51:00,61.9,60.0,29.91,NNW,338,0.6,1.8,93,0.00,,,1.74,WUHU216HW,2013-05-20 01:51:00,
2013-05-19 21:54:00,61.7,59.8,29.91,North,0,0.4,1.6,93,0.00,,,1.74,WUHU216HW,2013-05-20 01:54:00,
2013-05-19 21:55:00,61.7,59.8,29.91,NE,45,0.9,1.6,93,0.00,,,1.74,WUHU216HW,2013-05-20 01:55:00,
2013-05-19 21:56:00,61.7,59.8,29.91,NE,45,0.9,1.6,93,0.00,,,1.74,WUHU216HW,2013-05-20 01:56:00,
2013-05-19 21:58:00,61.7,59.8,29.91,East,90,0.9,1.8,93,0.00,,,1.74,WUHU216HW,2013-05-20 01:58:00,
2013-05-19 21:59:00,61.7,59.8,29.90,ESE,106,0.6,1.8,93,0.00,,,1.74,WUHU216HW,2013-05-20 01:59:00,
2013-05-19 22:00:00,61.6,59.6,29.90,SE,135,1.1,1.8,93,0.00,,,1.74,WUHU216HW,2013-05-20 02:00:00,
2013-05-19 22:01:00,61.6,59.6,29.90,SW,225,1.1,1.8,93,0.00,,,1.74,WUHU216HW,2013-05-20 02:01:00,
2013-05-19 22:04:00,61.6,59.6,29.91,SW,225,1.1,1.8,93,0.00,,,1.74,WUHU216HW,2013-05-20 02:04:00,
2013-05-19 22:06:00,61.4,59.4,29.91,SW,225,1.2,1.8,93,0.00,,,1.74,WUHU216HW,2013-05-20 02:06:00,
2013-05-19 22:09:00,61.4,59.4,29.91,SW,225,0.0,1.8,93,0.00,,,1.74,WUHU216HW,2013-05-20 02:09:00,
2013-05-19 22:11:00,61.4,59.4,29.91,SW,225,0.0,1.8,93,0.00,,,1.74,WUHU216HW,2013-05-20 02:11:00,
2013-05-19 22:15:00,61.4,59.4,29.91,SW,225,0.0,1.1,93,0.00,,,1.74,WUHU216HW,2013-05-20 02:15:00,
2013-05-19 22:16:00,61.4,59.4,29.91,SW,225,0.0,0.4,93,0.00,,,1.74,WUHU216HW,2013-05-20 02:16:00,
2013-05-19 22:17:00,61.4,59.4,29.91,SW,225,0.0,0.0,93,0.00,,,1.74,WUHU216HW,2013-05-20 02:17:00,
2013-05-19 22:39:00,60.5,58.5,29.90,ENE,68,0.9,0.9,93,0.00,,,1.74,WUHU216HW,2013-05-20 02:39:00,
2013-05-19 22:40:00,60.5,58.5,29.90,East,87,0.8,0.9,93,0.00,,,1.74,WUHU216HW,2013-05-20 02:40:00,
2013-05-19 22:44:00,60.5,58.5,29.90,SW,225,0.7,1.1,93,0.00,,,1.74,WUHU216HW,2013-05-20 02:44:00,
2013-05-19 22:45:00,60.5,58.5,29.90,SW,225,0.7,1.1,93,0.00,,,1.74,WUHU216HW,2013-05-20 02:45:00,
2013-05-19 22:46:00,60.5,58.5,29.90,SW,225,0.4,1.1,93,0.00,,,1.74,WUHU216HW,2013-05-20 02:46:00,
2013-05-19 22:50:00,60.1,58.2,29.91,SW,225,0.9,1.1,93,0.00,,,1.74,WUHU216HW,2013-05-20 02:50:00,
2013-05-19 22:51:00,60.1,58.2,29.91,SW,229,0.6,0.9,93,0.00,,,1.74,WUHU216HW,2013-05-20 02:51:00,
2013-05-19 22:55:00,60.1,58.2,29.91,WSW,248,0.0,0.9,93,0.00,,,1.74,WUHU216HW,2013-05-20 02:55:00,
2013-05-19 22:56:00,60.1,58.2,29.91,WSW,248,0.0,0.9,93,0.00,,,1.74,WUHU216HW,2013-05-20 02:56:00,
2013-05-19 22:57:00,60.1,58.2,29.91,WSW,248,0.0,0.9,93,0.00,,,1.74,WUHU216HW,2013-05-20 02:57:00,
2013-05-19 23:00:00,60.1,58.2,29.91,SE,135,1.3,1.6,93,0.00,,,1.74,WUHU216HW,2013-05-20 03:00:00,
2013-05-19 23:01:00,59.9,58.0,29.91,SE,135,0.9,1.6,93,0.00,,,1.74,WUHU216HW,2013-05-20 03:01:00,
2013-05-19 23:02:00,59.9,58.0,29.91,SE,135,0.6,1.6,93,0.00,,,1.74,WUHU216HW,2013-05-20 03:02:00,
2013-05-19 23:03:00,59.9,58.0,29.90,SE,135,0.4,1.6,93,0.00,,,1.74,WUHU216HW,2013-05-20 03:03:00,
2013-05-19 23:06:00,59.8,57.8,29.91,SW,225,0.9,1.6,93,0.00,,,1.74,WUHU216HW,2013-05-20 03:06:00,
2013-05-19 23:07:00,59.8,57.8,29.91,SW,225,0.9,1.6,93,0.00,,,1.74,WUHU216HW,2013-05-20 03:07:00,
2013-05-19 23:08:00,59.8,57.8,29.91,SW,225,0.9,1.6,93,0.00,,,1.74,WUHU216HW,2013-05-20 03:08:00,
2013-05-19 23:11:00,59.8,57.8,29.91,SW,225,0.9,0.9,93,0.00,,,1.74,WUHU216HW,2013-05-20 03:11:00,
2013-05-19 23:13:00,59.8,57.8,29.91,SW,225,0.9,0.9,93,0.00,,,1.74,WUHU216HW,2013-05-20 03:13:00,
2013-05-19 23:14:00,59.8,57.8,29.91,SW,225,0.9,0.9,93,0.00,,,1.74,WUHU216HW,2013-05-20 03:14:00,
2013-05-19 23:35:00,59.2,57.3,29.91,East,90,0.0,0.0,93,0.00,,,1.74,WUHU216HW,2013-05-20 03:35:00,
2013-05-19 23:36:00,59.2,57.3,29.91,East,90,0.0,0.0,93,0.00,,,1.74,WUHU216HW,2013-05-20 03:36:00,
2013-05-19 23:40:00,59.0,57.1,29.91,East,90,0.0,0.0,93,0.00,,,1.74,WUHU216HW,2013-05-20 03:40:00,
2013-05-19 23:41:00,59.0,57.1,29.91,East,90,0.0,0.0,93,0.00,,,1.74,WUHU216HW,2013-05-20 03:41:00,
2013-05-19 23:43:00,59.0,57.1,29.92,East,90,0.0,0.0,93,0.00,,,1.74,WUHU216HW,2013-05-20 03:43:00,
2013-05-19 23:46:00,59.0,57.1,29.92,East,90,0.0,0.0,93,0.00,,,1.74,WUHU216HW,2013-05-20 03:46:00,
2013-05-19 23:47:00,59.0,57.1,29.92,East,90,0.0,0.0,93,0.00,,,1.74,WUHU216HW,2013-05-20 03:47:00,
2013-05-19 23:49:00,58.9,56.5,29.91,East,90,0.0,0.0,92,0.00,,,1.74,WUHU216HW,2013-05-20 03:49:00,
2013-05-19 23:52:00,58.7,56.3,29.92,East,90,0.0,0.0,92,0.00,,,1.74,WUHU216HW,2013-05-20 03:52:00,
2013-05-19 23:53:00,58.7,56.3,29.92,East,90,0.0,0.0,92,0.00,,,1.74,WUHU216HW,2013-05-20 03:53:00,
2013-05-19 23:54:00,58.7,56.3,29.92,East,90,0.0,0.0,92,0.00,,,1.74,WUHU216HW,2013-05-20 03:54:00,
2013-05-19 23:57:00,58.7,56.3,29.92,East,90,0.0,0.0,92,0.00,,,1.74,WUHU216HW,2013-05-20 03:57:00,
2013-05-19 23:58:00,58.7,56.3,29.92,East,90,0.0,0.0,92,0.00,,,1.74,WUHU216HW,2013-05-20 03:58:00,
2013-05-19 23:59:00,58.7,56.3,29.92,East,90,0.0,0.0,92,0.00,,,1.74,WUHU216HW,2013-05-20 03:59:00,